Time,TemperatureF,DewpointF,PressureIn,WindDirection,WindDirectionDegrees,WindSpeedMPH,WindSpeedGustMPH,Humidity,HourlyPrecipIn,Conditions,Clouds,dailyrainin,SoftwareType,DateUTC
2013-05-03 00:02:00,63.3,62.7,29.98,North,6,0.0,0.0,98,0.00,,---,0.00,VWS V14.01,2013-05-03 05:02:00,
2013-05-03 00:03:00,63.3,62.7,29.98,North,6,0.0,0.0,98,0.00,,---,0.00,VWS V14.01,2013-05-03 05:03:00,
2013-05-03 00:04:00,63.3,62.7,29.98,North,6,0.0,0.0,98,0.00,,---,0.00,VWS V14.01,2013-05-03 05:04:00,
2013-05-03 00:07:00,63.2,62.6,29.98,North,6,0.0,0.0,98,0.00,,---,0.00,VWS V14.01,2013-05-03 05:07:00,
2013-05-03 00:08:00,63.2,62.6,29.98,North,6,0.0,0.0,98,0.00,,---,0.00,VWS V14.01,2013-05-03 05:08:00,
2013-05-03 00:09:00,63.2,62.6,29.97,North,6,0.0,0.0,98,0.00,,---,0.00,VWS V14.01,2013-05-03 05:09:00,
2013-05-03 00:12:00,63.2,62.6,29.97,North,6,0.0,0.0,98,0.00,,---,0.00,VWS V14.01,2013-05-03 05:12:00,
2013-05-03 00:13:00,63.2,62.6,29.97,North,6,0.0,0.0,98,0.00,,---,0.00,VWS V14.01,2013-05-03 05:13:00,
2013-05-03 00:14:00,63.2,62.6,29.97,North,6,0.0,0.0,98,0.00,,---,0.00,VWS V14.01,2013-05-03 05:14:00,
2013-05-03 00:17:00,63.1,62.5,29.97,North,6,0.0,0.0,98,0.00,,---,0.00,VWS V14.01,2013-05-03 05:17:00,
2013-05-03 00:18:00,63.1,62.5,29.97,North,6,0.0,0.0,98,0.00,,---,0.00,VWS V14.01,2013-05-03 05:18:00,
2013-05-03 00:19:00,63.0,62.4,29.97,North,6,0.0,0.0,98,0.00,,---,0.00,VWS V14.01,2013-05-03 05:19:00,
2013-05-03 00:23:00,63.0,62.4,29.97,North,6,0.0,0.0,98,0.00,,---,0.00,VWS V14.01,2013-05-03 05:23:00,
2013-05-03 00:24:00,63.0,62.4,29.97,North,6,0.0,0.0,98,0.00,,---,0.00,VWS V14.01,2013-05-03 05:24:00,
2013-05-03 00:25:00,63.0,62.4,29.97,North,6,0.0,0.0,98,0.00,,---,0.00,VWS V14.01,2013-05-03 05:25:00,
2013-05-03 00:28:00,62.9,62.3,29.97,WSW,253,0.0,0.0,98,0.00,,---,0.00,VWS V14.01,2013-05-03 05:28:00,
2013-05-03 00:29:00,63.0,62.4,29.97,WSW,253,0.0,1.0,98,0.00,,---,0.00,VWS V14.01,2013-05-03 05:29:00,
2013-05-03 00:30:00,62.9,62.3,29.97,WSW,253,0.0,1.0,98,0.00,,---,0.00,VWS V14.01,2013-05-03 05:30:00,
2013-05-03 00:33:00,62.9,62.3,29.97,WSW,254,0.0,0.0,98,0.00,,---,0.00,VWS V14.01,2013-05-03 05:33:00,
2013-05-03 00:34:00,62.8,62.2,29.97,WSW,254,0.0,0.0,98,0.00,,---,0.00,VWS V14.01,2013-05-03 05:34:00,
2013-05-03 00:35:00,62.8,62.2,29.97,WSW,254,0.0,0.0,98,0.00,,---,0.00,VWS V14.01,2013-05-03 05:35:00,
2013-05-03 00:38:00,62.8,62.2,29.97,WSW,254,0.0,0.0,98,0.00,,---,0.00,VWS V14.01,2013-05-03 05:38:00,
2013-05-03 00:39:00,62.8,62.2,29.97,WSW,254,0.0,0.0,98,0.00,,---,0.00,VWS V14.01,2013-05-03 05:39:00,
2013-05-03 00:40:00,62.8,62.2,29.97,WSW,254,0.0,0.0,98,0.00,,---,0.00,VWS V14.01,2013-05-03 05:40:00,
2013-05-03 00:43:00,62.8,62.2,29.96,WSW,254,0.0,0.0,98,0.00,,---,0.00,VWS V14.01,2013-05-03 05:43:00,
2013-05-03 00:44:00,62.7,62.1,29.96,WSW,254,0.0,0.0,98,0.00,,---,0.00,VWS V14.01,2013-05-03 05:44:00,
2013-05-03 00:45:00,62.7,62.1,29.96,WSW,253,0.0,1.0,98,0.00,,---,0.00,VWS V14.01,2013-05-03 05:45:00,
2013-05-03 00:48:00,62.7,62.1,29.96,WSW,253,0.0,1.0,98,0.00,,---,0.00,VWS V14.01,2013-05-03 05:48:00,
2013-05-03 00:49:00,62.6,62.0,29.96,WSW,254,0.0,1.0,98,0.00,,---,0.00,VWS V14.01,2013-05-03 05:49:00,
2013-05-03 00:51:00,62.6,62.0,29.96,WSW,254,0.0,1.0,98,0.00,,---,0.00,VWS V14.01,2013-05-03 05:51:00,
2013-05-03 00:53:00,62.7,62.1,29.96,WSW,254,0.0,1.0,98,0.00,,---,0.00,VWS V14.01,2013-05-03 05:53:00,
2013-05-03 00:54:00,62.6,62.0,29.96,WSW,254,0.0,1.0,98,0.00,,---,0.00,VWS V14.01,2013-05-03 05:54:00,
2013-05-03 00:56:00,62.6,62.0,29.96,WSW,253,0.0,1.0,98,0.00,,---,0.00,VWS V14.01,2013-05-03 05:56:00,
2013-05-03 00:58:00,62.6,62.0,29.96,WSW,254,0.0,1.0,98,0.00,,---,0.00,VWS V14.01,2013-05-03 05:58:00,
2013-05-03 00:59:00,62.6,62.0,29.96,WSW,253,0.0,1.0,98,0.00,,---,0.00,VWS V14.01,2013-05-03 05:59:00,
2013-05-03 01:01:00,62.6,62.0,29.96,WSW,254,0.0,0.0,98,0.00,,---,0.00,VWS V14.01,2013-05-03 06:01:00,
2013-05-03 01:03:00,62.6,62.0,29.95,WSW,253,0.0,0.0,98,0.00,,---,0.00,VWS V14.01,2013-05-03 06:03:00,
2013-05-03 01:04:00,62.6,62.0,29.95,WSW,254,0.0,0.0,98,0.00,,---,0.00,VWS V14.01,2013-05-03 06:04:00,
2013-05-03 01:06:00,62.6,62.0,29.95,WSW,253,0.0,0.0,98,0.00,,---,0.00,VWS V14.01,2013-05-03 06:06:00,
2013-05-03 01:08:00,62.6,62.0,29.95,WSW,254,0.0,0.0,98,0.00,,---,0.00,VWS V14.01,2013-05-03 06:08:00,
2013-05-03 01:09:00,62.6,62.0,29.95,WSW,254,0.0,0.0,98,0.00,,---,0.00,VWS V14.01,2013-05-03 06:09:00,
2013-05-03 01:10:00,62.6,62.0,29.95,WSW,254,0.0,0.0,98,0.00,,---,0.00,VWS V14.01,2013-05-03 06:10:00,
2013-05-03 01:11:00,62.6,62.0,29.95,WSW,254,0.0,0.0,98,0.00,,---,0.00,VWS V14.01,2013-05-03 06:11:00,
2013-05-03 01:13:00,62.6,62.0,29.95,WSW,254,0.0,0.0,98,0.00,,---,0.00,VWS V14.01,2013-05-03 06:13:00,
2013-05-03 01:14:00,62.6,62.0,29.95,WSW,253,0.0,0.0,98,0.00,,---,0.00,VWS V14.01,2013-05-03 06:14:00,
2013-05-03 01:15:00,62.6,62.0,29.95,WSW,254,0.0,0.0,98,0.00,,---,0.00,VWS V14.01,2013-05-03 06:15:00,
2013-05-03 01:16:00,62.5,61.9,29.95,WSW,254,0.0,0.0,98,0.00,,---,0.00,VWS V14.01,2013-05-03 06:16:00,
2013-05-03 01:19:00,62.5,61.9,29.95,WSW,253,0.0,0.0,98,0.00,,---,0.00,VWS V14.01,2013-05-03 06:19:00,
2013-05-03 01:20:00,62.5,61.9,29.95,WSW,254,0.0,0.0,98,0.00,,---,0.00,VWS V14.01,2013-05-03 06:20:00,
2013-05-03 01:21:00,62.5,61.9,29.95,WSW,254,0.0,0.0,98,0.00,,---,0.00,VWS V14.01,2013-05-03 06:21:00,
2013-05-03 01:24:00,62.5,61.9,29.94,WSW,254,0.0,0.0,98,0.00,,---,0.00,VWS V14.01,2013-05-03 06:24:00,
2013-05-03 01:25:00,62.5,61.9,29.95,WSW,254,1.0,1.0,98,0.01,,---,0.01,VWS V14.01,2013-05-03 06:25:00,
2013-05-03 01:26:00,62.5,61.9,29.95,WSW,254,0.0,1.0,98,0.01,,---,0.01,VWS V14.01,2013-05-03 06:26:00,
2013-05-03 01:29:00,62.5,61.9,29.94,WSW,254,0.0,1.0,98,0.04,,---,0.04,VWS V14.01,2013-05-03 06:29:00,
2013-05-03 01:30:00,62.5,61.9,29.94,WSW,253,0.0,1.0,98,0.05,,---,0.05,VWS V14.01,2013-05-03 06:30:00,
2013-05-03 01:32:00,62.4,61.8,29.94,WSW,254,0.0,0.0,98,0.06,,---,0.06,VWS V14.01,2013-05-03 06:32:00,
2013-05-03 01:34:00,62.4,61.8,29.94,WSW,254,0.0,0.0,98,0.06,,---,0.06,VWS V14.01,2013-05-03 06:34:00,
2013-05-03 01:35:00,62.4,61.8,29.94,WSW,254,0.0,0.0,98,0.06,,---,0.06,VWS V14.01,2013-05-03 06:35:00,
2013-05-03 01:37:00,62.4,61.8,29.94,WSW,254,0.0,0.0,98,0.06,,---,0.06,VWS V14.01,2013-05-03 06:37:00,
2013-05-03 01:39:00,62.4,61.8,29.94,WSW,254,0.0,0.0,98,0.06,,---,0.06,VWS V14.01,2013-05-03 06:39:00,
2013-05-03 01:40:00,62.4,61.8,29.94,WSW,254,0.0,0.0,98,0.06,,---,0.06,VWS V14.01,2013-05-03 06:40:00,
2013-05-03 01:42:00,62.4,61.8,29.93,WSW,254,0.0,0.0,98,0.06,,---,0.06,VWS V14.01,2013-05-03 06:42:00,
2013-05-03 01:44:00,62.4,61.8,29.93,WSW,254,0.0,0.0,98,0.07,,---,0.07,VWS V14.01,2013-05-03 06:44:00,
2013-05-03 01:45:00,62.4,61.8,29.93,WSW,254,0.0,0.0,98,0.07,,---,0.07,VWS V14.01,2013-05-03 06:45:00,
2013-05-03 01:47:00,62.3,61.7,29.93,WSW,254,0.0,0.0,98,0.08,,---,0.08,VWS V14.01,2013-05-03 06:47:00,
2013-05-03 01:50:00,62.3,61.7,29.93,WSW,254,0.0,0.0,98,0.08,,---,0.08,VWS V14.01,2013-05-03 06:50:00,
2013-05-03 01:52:00,62.3,61.7,29.93,WSW,253,0.0,0.0,98,0.09,,---,0.09,VWS V14.01,2013-05-03 06:52:00,
2013-05-03 01:55:00,62.3,61.7,29.92,WSW,253,0.0,0.0,98,0.10,,---,0.10,VWS V14.01,2013-05-03 06:55:00,
2013-05-03 01:56:00,62.3,61.7,29.92,WSW,254,0.0,0.0,98,0.10,,---,0.10,VWS V14.01,2013-05-03 06:56:00,
2013-05-03 01:57:00,62.3,61.7,29.92,WSW,254,0.0,0.0,98,0.10,,---,0.10,VWS V14.01,2013-05-03 06:57:00,
2013-05-03 02:00:00,62.2,61.6,29.92,WSW,254,0.0,0.0,98,0.10,,---,0.10,VWS V14.01,2013-05-03 07:00:00,
2013-05-03 02:01:00,62.2,61.6,29.92,WSW,254,0.0,0.0,98,0.10,,---,0.10,VWS V14.01,2013-05-03 07:01:00,
2013-05-03 02:02:00,62.2,61.6,29.92,WSW,254,0.0,0.0,98,0.10,,---,0.10,VWS V14.01,2013-05-03 07:02:00,
2013-05-03 02:05:00,62.2,61.6,29.92,WSW,254,0.0,0.0,98,0.10,,---,0.10,VWS V14.01,2013-05-03 07:05:00,
2013-05-03 02:06:00,62.2,61.6,29.92,WSW,254,0.0,0.0,98,0.10,,---,0.10,VWS V14.01,2013-05-03 07:06:00,
2013-05-03 02:07:00,62.2,61.6,29.92,WSW,254,0.0,0.0,98,0.10,,---,0.10,VWS V14.01,2013-05-03 07:07:00,
2013-05-03 02:10:00,62.2,61.6,29.92,WSW,254,0.0,0.0,98,0.10,,---,0.10,VWS V14.01,2013-05-03 07:10:00,
2013-05-03 02:11:00,62.2,61.6,29.92,WSW,254,0.0,0.0,98,0.10,,---,0.10,VWS V14.01,2013-05-03 07:11:00,
2013-05-03 02:12:00,62.2,61.6,29.92,WSW,254,0.0,0.0,98,0.10,,---,0.10,VWS V14.01,2013-05-03 07:12:00,
2013-05-03 02:15:00,62.2,61.6,29.91,WSW,254,0.0,0.0,98,0.10,,---,0.10,VWS V14.01,2013-05-03 07:15:00,
2013-05-03 02:16:00,62.2,61.6,29.91,WSW,254,0.0,0.0,98,0.10,,---,0.10,VWS V14.01,2013-05-03 07:16:00,
2013-05-03 02:17:00,62.2,61.6,29.91,WSW,253,0.0,0.0,98,0.10,,---,0.10,VWS V14.01,2013-05-03 07:17:00,
2013-05-03 02:20:00,62.2,61.6,29.91,WSW,253,0.0,0.0,98,0.10,,---,0.10,VWS V14.01,2013-05-03 07:20:00,
2013-05-03 02:21:00,62.2,61.6,29.91,WSW,254,0.0,0.0,98,0.10,,---,0.10,VWS V14.01,2013-05-03 07:21:00,
2013-05-03 02:22:00,62.2,61.6,29.91,WSW,254,0.0,0.0,98,0.10,,---,0.10,VWS V14.01,2013-05-03 07:22:00,
2013-05-03 02:26:00,62.1,61.5,29.91,WSW,254,0.0,0.0,98,0.11,,---,0.11,VWS V14.01,2013-05-03 07:26:00,
2013-05-03 02:27:00,62.1,61.5,29.91,WSW,254,0.0,0.0,98,0.11,,---,0.11,VWS V14.01,2013-05-03 07:27:00,
2013-05-03 02:31:00,62.1,61.5,29.91,WSW,253,0.0,0.0,98,0.06,,---,0.11,VWS V14.01,2013-05-03 07:31:00,
2013-05-03 02:32:00,62.1,61.8,29.91,WSW,254,0.0,0.0,99,0.06,,---,0.11,VWS V14.01,2013-05-03 07:32:00,
2013-05-03 02:36:00,62.1,61.5,29.90,WSW,253,0.0,0.0,98,0.06,,---,0.11,VWS V14.01,2013-05-03 07:36:00,
2013-05-03 02:37:00,62.1,61.5,29.90,WSW,253,0.0,0.0,98,0.06,,---,0.11,VWS V14.01,2013-05-03 07:37:00,
2013-05-03 02:41:00,62.1,61.5,29.90,WSW,254,0.0,0.0,98,0.06,,---,0.11,VWS V14.01,2013-05-03 07:41:00,
2013-05-03 02:42:00,62.1,61.5,29.90,WSW,254,0.0,0.0,98,0.06,,---,0.11,VWS V14.01,2013-05-03 07:42:00,
2013-05-03 02:43:00,62.1,61.5,29.90,WSW,254,0.0,1.0,98,0.06,,---,0.11,VWS V14.01,2013-05-03 07:43:00,
2013-05-03 02:46:00,62.1,61.5,29.90,WSW,254,0.0,0.0,98,0.03,,---,0.11,VWS V14.01,2013-05-03 07:46:00,
2013-05-03 02:47:00,62.0,61.4,29.90,WSW,254,0.0,0.0,98,0.03,,---,0.11,VWS V14.01,2013-05-03 07:47:00,
2013-05-03 02:48:00,62.1,61.5,29.90,WSW,253,0.0,0.0,98,0.03,,---,0.11,VWS V14.01,2013-05-03 07:48:00,
2013-05-03 02:51:00,62.0,61.4,29.90,WSW,253,0.0,0.0,98,0.03,,---,0.11,VWS V14.01,2013-05-03 07:51:00,
2013-05-03 02:52:00,62.1,61.5,29.90,WSW,254,0.0,0.0,98,0.03,,---,0.11,VWS V14.01,2013-05-03 07:52:00,
2013-05-03 02:53:00,62.1,61.5,29.90,WSW,254,0.0,0.0,98,0.03,,---,0.11,VWS V14.01,2013-05-03 07:53:00,
2013-05-03 02:56:00,62.0,61.7,29.90,WSW,254,0.0,0.0,99,0.03,,---,0.11,VWS V14.01,2013-05-03 07:56:00,
2013-05-03 02:57:00,62.0,61.7,29.90,WSW,254,0.0,0.0,99,0.03,,---,0.11,VWS V14.01,2013-05-03 07:57:00,
2013-05-03 02:58:00,62.0,61.7,29.90,WSW,254,0.0,0.0,99,0.03,,---,0.11,VWS V14.01,2013-05-03 07:58:00,
2013-05-03 03:01:00,62.0,61.7,29.90,WSW,254,0.0,0.0,99,0.01,,---,0.11,VWS V14.01,2013-05-03 08:01:00,
2013-05-03 03:02:00,62.0,61.7,29.90,WSW,253,0.0,0.0,99,0.01,,---,0.11,VWS V14.01,2013-05-03 08:02:00,
2013-05-03 03:03:00,62.0,61.7,29.90,WSW,253,0.0,0.0,99,0.01,,---,0.11,VWS V14.01,2013-05-03 08:03:00,
2013-05-03 03:06:00,62.0,61.7,29.90,WSW,254,0.0,0.0,99,0.01,,---,0.11,VWS V14.01,2013-05-03 08:06:00,
2013-05-03 03:07:00,62.0,61.7,29.90,WSW,253,0.0,1.0,99,0.01,,---,0.11,VWS V14.01,2013-05-03 08:07:00,
2013-05-03 03:08:00,62.0,61.7,29.90,WSW,254,0.0,1.0,99,0.01,,---,0.11,VWS V14.01,2013-05-03 08:08:00,
2013-05-03 03:11:00,62.0,61.7,29.90,WSW,253,0.0,1.0,99,0.01,,---,0.11,VWS V14.01,2013-05-03 08:11:00,
2013-05-03 03:12:00,62.0,61.7,29.90,WSW,254,0.0,1.0,99,0.01,,---,0.11,VWS V14.01,2013-05-03 08:12:00,
2013-05-03 03:13:00,62.0,61.7,29.90,WSW,254,0.0,1.0,99,0.01,,---,0.11,VWS V14.01,2013-05-03 08:13:00,
2013-05-03 03:16:00,62.0,61.7,29.90,WSW,254,0.0,0.0,99,0.01,,---,0.11,VWS V14.01,2013-05-03 08:16:00,
2013-05-03 03:17:00,62.0,61.7,29.90,WSW,254,0.0,0.0,99,0.01,,---,0.11,VWS V14.01,2013-05-03 08:17:00,
2013-05-03 03:18:00,62.0,61.7,29.90,WSW,254,0.0,0.0,99,0.01,,---,0.11,VWS V14.01,2013-05-03 08:18:00,
2013-05-03 03:19:00,62.0,61.7,29.90,WSW,253,0.0,0.0,99,0.01,,---,0.11,VWS V14.01,2013-05-03 08:19:00,
2013-05-03 03:21:00,61.9,61.6,29.89,WSW,254,0.0,0.0,99,0.01,,---,0.11,VWS V14.01,2013-05-03 08:21:00,
2013-05-03 03:22:00,61.9,61.6,29.89,WSW,254,0.0,2.0,99,0.01,,---,0.11,VWS V14.01,2013-05-03 08:22:00,
2013-05-03 03:23:00,61.9,61.6,29.89,WSW,254,0.0,2.0,99,0.01,,---,0.11,VWS V14.01,2013-05-03 08:23:00,
2013-05-03 03:24:00,61.9,61.6,29.89,WSW,254,0.0,2.0,99,0.01,,---,0.11,VWS V14.01,2013-05-03 08:24:00,
2013-05-03 03:26:00,61.9,61.6,29.90,WSW,254,0.0,2.0,99,0.01,,---,0.11,VWS V14.01,2013-05-03 08:26:00,
2013-05-03 03:28:00,61.9,61.6,29.89,WSW,254,0.0,2.0,99,0.01,,---,0.11,VWS V14.01,2013-05-03 08:28:00,
2013-05-03 03:29:00,61.9,61.6,29.90,WSW,254,0.0,2.0,99,0.01,,---,0.11,VWS V14.01,2013-05-03 08:29:00,
2013-05-03 03:31:00,61.8,61.5,29.89,WSW,254,0.0,1.0,99,0.00,,---,0.11,VWS V14.01,2013-05-03 08:31:00,
2013-05-03 03:33:00,61.8,61.2,29.89,WSW,254,0.0,1.0,98,0.00,,---,0.11,VWS V14.01,2013-05-03 08:33:00,
2013-05-03 03:34:00,61.8,61.5,29.89,WSW,254,0.0,1.0,99,0.00,,---,0.11,VWS V14.01,2013-05-03 08:34:00,
2013-05-03 03:36:00,61.8,61.5,29.89,WSW,254,0.0,1.0,99,0.00,,---,0.11,VWS V14.01,2013-05-03 08:36:00,
2013-05-03 03:38:00,61.8,61.5,29.89,WSW,253,0.0,1.0,99,0.00,,---,0.11,VWS V14.01,2013-05-03 08:38:00,
2013-05-03 03:39:00,61.8,61.5,29.89,WSW,254,0.0,1.0,99,0.00,,---,0.11,VWS V14.01,2013-05-03 08:39:00,
2013-05-03 03:41:00,61.8,61.5,29.89,SSW,211,0.0,2.0,99,0.00,,---,0.11,VWS V14.01,2013-05-03 08:41:00,
2013-05-03 03:43:00,61.8,61.5,29.89,SSW,211,0.0,2.0,99,0.00,,---,0.11,VWS V14.01,2013-05-03 08:43:00,
2013-05-03 03:44:00,61.8,61.5,29.90,SSW,211,0.0,2.0,99,0.00,,---,0.11,VWS V14.01,2013-05-03 08:44:00,
2013-05-03 03:45:00,61.8,61.5,29.90,SSW,211,0.0,2.0,99,0.00,,---,0.11,VWS V14.01,2013-05-03 08:45:00,
2013-05-03 03:46:00,61.8,61.5,29.89,SW,226,0.0,1.0,99,0.00,,---,0.11,VWS V14.01,2013-05-03 08:46:00,
2013-05-03 03:48:00,61.8,61.5,29.89,SW,226,0.0,1.0,99,0.00,,---,0.11,VWS V14.01,2013-05-03 08:48:00,
2013-05-03 03:49:00,61.8,61.5,29.89,SW,226,0.0,1.0,99,0.00,,---,0.11,VWS V14.01,2013-05-03 08:49:00,
2013-05-03 03:50:00,61.7,61.4,29.89,WSW,257,1.0,1.0,99,0.00,,---,0.11,VWS V14.01,2013-05-03 08:50:00,
2013-05-03 03:52:00,61.7,61.4,29.90,NNW,330,1.0,2.0,99,0.00,,---,0.11,VWS V14.01,2013-05-03 08:52:00,
2013-05-03 03:53:00,61.7,61.4,29.89,West,273,0.0,2.0,99,0.00,,---,0.11,VWS V14.01,2013-05-03 08:53:00,
2013-05-03 03:54:00,61.7,61.4,29.89,West,273,0.0,2.0,99,0.00,,---,0.11,VWS V14.01,2013-05-03 08:54:00,
2013-05-03 03:55:00,61.8,61.5,29.89,West,273,0.0,2.0,99,0.00,,---,0.11,VWS V14.01,2013-05-03 08:55:00,
2013-05-03 03:57:00,61.7,61.4,29.90,West,273,0.0,2.0,99,0.01,,---,0.12,VWS V14.01,2013-05-03 08:57:00,
2013-05-03 03:58:00,61.7,61.4,29.89,West,273,0.0,2.0,99,0.01,,---,0.12,VWS V14.01,2013-05-03 08:58:00,
2013-05-03 04:00:00,61.7,61.4,29.89,West,273,0.0,2.0,99,0.01,,---,0.12,VWS V14.01,2013-05-03 09:00:00,
2013-05-03 04:02:00,61.7,61.4,29.90,West,273,0.0,0.0,99,0.01,,---,0.12,VWS V14.01,2013-05-03 09:02:00,
2013-05-03 04:03:00,61.7,61.4,29.89,West,273,0.0,1.0,99,0.02,,---,0.13,VWS V14.01,2013-05-03 09:03:00,
2013-05-03 04:05:00,61.7,61.4,29.89,West,271,1.0,1.0,99,0.02,,---,0.13,VWS V14.01,2013-05-03 09:05:00,
2013-05-03 04:07:00,61.7,61.4,29.89,West,271,0.0,1.0,99,0.03,,---,0.14,VWS V14.01,2013-05-03 09:07:00,
2013-05-03 04:09:00,61.7,61.4,29.90,West,271,0.0,1.0,99,0.03,,---,0.14,VWS V14.01,2013-05-03 09:09:00,
2013-05-03 04:10:00,61.7,61.4,29.89,West,270,1.0,1.0,99,0.03,,---,0.14,VWS V14.01,2013-05-03 09:10:00,
2013-05-03 04:14:00,61.7,61.4,29.89,West,270,0.0,0.0,99,0.03,,---,0.14,VWS V14.01,2013-05-03 09:14:00,
2013-05-03 04:15:00,61.6,61.3,29.89,West,270,1.0,1.0,99,0.04,,---,0.15,VWS V14.01,2013-05-03 09:15:00,
2013-05-03 04:19:00,61.6,61.3,29.89,West,270,0.0,0.0,99,0.04,,---,0.15,VWS V14.01,2013-05-03 09:19:00,
2013-05-03 04:20:00,61.6,61.3,29.89,West,270,0.0,0.0,99,0.04,,---,0.15,VWS V14.01,2013-05-03 09:20:00,
2013-05-03 04:21:00,61.6,61.3,29.89,West,270,0.0,0.0,99,0.04,,---,0.15,VWS V14.01,2013-05-03 09:21:00,
2013-05-03 04:24:00,61.6,61.3,29.89,West,260,0.0,1.0,99,0.04,,---,0.15,VWS V14.01,2013-05-03 09:24:00,
2013-05-03 04:25:00,61.6,61.3,29.89,West,261,0.0,1.0,99,0.04,,---,0.15,VWS V14.01,2013-05-03 09:25:00,
2013-05-03 04:26:00,61.6,61.3,29.89,West,261,0.0,1.0,99,0.04,,---,0.15,VWS V14.01,2013-05-03 09:26:00,
2013-05-03 04:29:00,61.6,61.3,29.89,West,260,0.0,1.0,99,0.04,,---,0.15,VWS V14.01,2013-05-03 09:29:00,
2013-05-03 04:30:00,61.6,61.3,29.89,West,261,0.0,1.0,99,0.04,,---,0.15,VWS V14.01,2013-05-03 09:30:00,
2013-05-03 04:31:00,61.6,61.3,29.89,West,262,1.0,1.0,99,0.04,,---,0.15,VWS V14.01,2013-05-03 09:31:00,
2013-05-03 04:34:00,61.6,61.3,29.89,West,262,0.0,1.0,99,0.04,,---,0.15,VWS V14.01,2013-05-03 09:34:00,
2013-05-03 04:35:00,61.6,61.3,29.89,West,262,0.0,1.0,99,0.05,,---,0.16,VWS V14.01,2013-05-03 09:35:00,
2013-05-03 04:36:00,61.6,61.3,29.89,West,262,0.0,1.0,99,0.05,,---,0.16,VWS V14.01,2013-05-03 09:36:00,
2013-05-03 04:40:00,61.6,61.3,29.88,West,262,0.0,1.0,99,0.06,,---,0.17,VWS V14.01,2013-05-03 09:40:00,
2013-05-03 04:41:00,61.6,61.3,29.89,West,262,0.0,1.0,99,0.06,,---,0.17,VWS V14.01,2013-05-03 09:41:00,
2013-05-03 04:45:00,61.5,61.2,29.89,West,262,0.0,1.0,99,0.06,,---,0.17,VWS V14.01,2013-05-03 09:45:00,
2013-05-03 04:46:00,61.6,61.3,29.88,West,262,0.0,0.0,99,0.06,,---,0.17,VWS V14.01,2013-05-03 09:46:00,
2013-05-03 04:50:00,61.5,61.2,29.88,West,262,0.0,0.0,99,0.06,,---,0.17,VWS V14.01,2013-05-03 09:50:00,
2013-05-03 04:51:00,61.5,61.2,29.88,West,262,0.0,0.0,99,0.06,,---,0.17,VWS V14.01,2013-05-03 09:51:00,
2013-05-03 04:55:00,61.5,61.2,29.88,West,262,0.0,1.0,99,0.06,,---,0.17,VWS V14.01,2013-05-03 09:55:00,
2013-05-03 04:56:00,61.5,61.2,29.88,West,262,0.0,1.0,99,0.06,,---,0.17,VWS V14.01,2013-05-03 09:56:00,
2013-05-03 05:00:00,61.5,61.2,29.88,West,262,0.0,1.0,99,0.06,,---,0.17,VWS V14.01,2013-05-03 10:00:00,
2013-05-03 05:01:00,61.5,61.2,29.88,West,262,0.0,0.0,99,0.05,,---,0.17,VWS V14.01,2013-05-03 10:01:00,
2013-05-03 05:02:00,61.5,61.2,29.88,West,262,0.0,0.0,99,0.05,,---,0.17,VWS V14.01,2013-05-03 10:02:00,
2013-05-03 05:05:00,61.6,61.3,29.88,West,262,0.0,0.0,99,0.06,,---,0.18,VWS V14.01,2013-05-03 10:05:00,
2013-05-03 05:06:00,61.5,61.2,29.88,West,262,0.0,0.0,99,0.06,,---,0.18,VWS V14.01,2013-05-03 10:06:00,
2013-05-03 05:07:00,61.5,61.2,29.88,West,262,0.0,0.0,99,0.06,,---,0.18,VWS V14.01,2013-05-03 10:07:00,
2013-05-03 05:11:00,61.5,61.2,29.88,West,262,0.0,0.0,99,0.06,,---,0.18,VWS V14.01,2013-05-03 10:11:00,
2013-05-03 05:12:00,61.6,61.3,29.88,West,262,0.0,1.0,99,0.06,,---,0.18,VWS V14.01,2013-05-03 10:12:00,
2013-05-03 05:16:00,60.9,60.3,29.88,West,262,0.0,0.0,98,0.03,,---,0.18,VWS V14.01,2013-05-03 10:16:00,
2013-05-03 05:17:00,60.7,60.1,29.88,West,262,0.0,0.0,98,0.03,,---,0.18,VWS V14.01,2013-05-03 10:17:00,
2013-05-03 05:21:00,60.0,59.2,29.88,West,262,0.0,0.0,97,0.04,,---,0.19,VWS V14.01,2013-05-03 10:21:00,
2013-05-03 05:22:00,59.7,58.8,29.88,West,262,0.0,0.0,97,0.04,,---,0.19,VWS V14.01,2013-05-03 10:22:00,
2013-05-03 05:26:00,59.2,58.3,29.88,West,262,0.0,0.0,97,0.04,,---,0.19,VWS V14.01,2013-05-03 10:26:00,
2013-05-03 05:27:00,59.0,58.2,29.88,West,264,0.0,1.0,97,0.04,,---,0.19,VWS V14.01,2013-05-03 10:27:00,
2013-05-03 05:31:00,58.6,57.8,29.88,West,263,0.0,0.0,97,0.04,,---,0.19,VWS V14.01,2013-05-03 10:31:00,
2013-05-03 05:32:00,58.5,57.7,29.87,West,264,0.0,0.0,97,0.04,,---,0.19,VWS V14.01,2013-05-03 10:32:00,
2013-05-03 05:33:00,58.4,57.6,29.87,West,263,0.0,0.0,97,0.04,,---,0.19,VWS V14.01,2013-05-03 10:33:00,
2013-05-03 05:36:00,58.1,57.3,29.87,West,263,0.0,1.0,97,0.04,,---,0.19,VWS V14.01,2013-05-03 10:36:00,
2013-05-03 05:37:00,58.0,57.2,29.87,West,263,0.0,1.0,97,0.04,,---,0.19,VWS V14.01,2013-05-03 10:37:00,
2013-05-03 05:38:00,57.9,57.1,29.87,West,264,0.0,1.0,97,0.04,,---,0.19,VWS V14.01,2013-05-03 10:38:00,
2013-05-03 05:41:00,57.8,57.0,29.87,West,263,0.0,1.0,97,0.04,,---,0.19,VWS V14.01,2013-05-03 10:41:00,
2013-05-03 05:42:00,57.7,56.9,29.88,West,263,0.0,1.0,97,0.04,,---,0.19,VWS V14.01,2013-05-03 10:42:00,
2013-05-03 05:43:00,57.6,56.8,29.88,West,263,0.0,1.0,97,0.04,,---,0.19,VWS V14.01,2013-05-03 10:43:00,
2013-05-03 05:46:00,57.5,56.7,29.88,West,263,0.0,0.0,97,0.02,,---,0.19,VWS V14.01,2013-05-03 10:46:00,
2013-05-03 05:47:00,57.4,56.6,29.88,West,264,0.0,0.0,97,0.02,,---,0.19,VWS V14.01,2013-05-03 10:47:00,
2013-05-03 05:48:00,57.3,56.5,29.88,West,263,0.0,0.0,97,0.02,,---,0.19,VWS V14.01,2013-05-03 10:48:00,
2013-05-03 05:51:00,56.9,56.1,29.88,West,262,0.0,1.0,97,0.03,,---,0.20,VWS V14.01,2013-05-03 10:51:00,
2013-05-03 05:52:00,56.8,56.0,29.88,West,262,0.0,1.0,97,0.03,,---,0.20,VWS V14.01,2013-05-03 10:52:00,
2013-05-03 05:53:00,56.7,55.9,29.88,West,262,0.0,1.0,97,0.03,,---,0.20,VWS V14.01,2013-05-03 10:53:00,
2013-05-03 05:56:00,56.3,55.5,29.88,West,273,0.0,2.0,97,0.03,,---,0.20,VWS V14.01,2013-05-03 10:56:00,
2013-05-03 05:57:00,56.2,55.4,29.88,West,275,0.0,2.0,97,0.03,,---,0.20,VWS V14.01,2013-05-03 10:57:00,
2013-05-03 05:58:00,56.1,55.3,29.88,West,274,0.0,2.0,97,0.04,,---,0.21,VWS V14.01,2013-05-03 10:58:00,
2013-05-03 06:02:00,55.8,55.0,29.88,West,276,0.0,1.0,97,0.04,,---,0.21,VWS V14.01,2013-05-03 11:02:00,
2013-05-03 06:03:00,55.7,54.9,29.88,West,276,0.0,1.0,97,0.04,,---,0.21,VWS V14.01,2013-05-03 11:03:00,
2013-05-03 06:07:00,55.5,54.7,29.88,West,276,0.0,1.0,97,0.05,,---,0.22,VWS V14.01,2013-05-03 11:07:00,
2013-05-03 06:08:00,55.4,54.6,29.88,West,278,0.0,2.0,97,0.05,,---,0.22,VWS V14.01,2013-05-03 11:08:00,
2013-05-03 06:12:00,55.0,54.2,29.88,West,259,0.0,2.0,97,0.06,,---,0.23,VWS V14.01,2013-05-03 11:12:00,
2013-05-03 06:13:00,54.9,54.1,29.88,West,259,0.0,2.0,97,0.06,,---,0.23,VWS V14.01,2013-05-03 11:13:00,
2013-05-03 06:14:00,54.8,54.0,29.88,West,259,0.0,2.0,97,0.06,,---,0.23,VWS V14.01,2013-05-03 11:14:00,
2013-05-03 06:17:00,54.4,53.6,29.88,WNW,288,2.0,4.0,97,0.06,,---,0.24,VWS V14.01,2013-05-03 11:17:00,
2013-05-03 06:18:00,54.4,53.6,29.88,WNW,288,0.0,4.0,97,0.06,,---,0.24,VWS V14.01,2013-05-03 11:18:00,
2013-05-03 06:19:00,54.3,53.5,29.88,WNW,287,0.0,4.0,97,0.06,,---,0.24,VWS V14.01,2013-05-03 11:19:00,
2013-05-03 06:23:00,53.9,53.1,29.89,West,271,0.0,4.0,97,0.06,,---,0.24,VWS V14.01,2013-05-03 11:23:00,
2013-05-03 06:24:00,53.8,53.0,29.89,WNW,285,2.0,4.0,97,0.06,,---,0.24,VWS V14.01,2013-05-03 11:24:00,
2013-05-03 06:28:00,53.5,52.7,29.88,NNW,328,0.0,5.0,97,0.08,,---,0.26,VWS V14.01,2013-05-03 11:28:00,
2013-05-03 06:29:00,53.4,52.6,29.88,NNW,328,0.0,5.0,97,0.08,,---,0.26,VWS V14.01,2013-05-03 11:29:00,
2013-05-03 06:33:00,53.1,52.3,29.88,NW,326,0.0,0.0,97,0.11,,---,0.30,VWS V14.01,2013-05-03 11:33:00,
2013-05-03 06:34:00,53.0,52.2,29.88,NW,326,0.0,0.0,97,0.12,,---,0.31,VWS V14.01,2013-05-03 11:34:00,
2013-05-03 06:38:00,52.8,52.0,29.89,NNW,340,0.0,3.0,97,0.13,,---,0.32,VWS V14.01,2013-05-03 11:38:00,
2013-05-03 06:39:00,52.7,51.9,29.89,NNW,340,0.0,3.0,97,0.13,,---,0.32,VWS V14.01,2013-05-03 11:39:00,
2013-05-03 06:43:00,52.5,51.7,29.89,NNW,340,0.0,3.0,97,0.15,,---,0.34,VWS V14.01,2013-05-03 11:43:00,
2013-05-03 06:44:00,52.5,51.7,29.89,NNW,340,0.0,3.0,97,0.16,,---,0.35,VWS V14.01,2013-05-03 11:44:00,
2013-05-03 06:48:00,52.3,51.5,29.89,NNW,337,0.0,1.0,97,0.18,,---,0.37,VWS V14.01,2013-05-03 11:48:00,
2013-05-03 06:49:00,52.2,51.4,29.89,West,278,4.0,4.0,97,0.18,,---,0.37,VWS V14.01,2013-05-03 11:49:00,
2013-05-03 06:50:00,52.1,51.3,29.89,West,279,0.0,6.0,97,0.19,,---,0.38,VWS V14.01,2013-05-03 11:50:00,
2013-05-03 06:54:00,52.0,51.2,29.89,SW,216,0.0,6.0,97,0.21,,---,0.40,VWS V14.01,2013-05-03 11:54:00,
2013-05-03 06:55:00,52.0,51.2,29.89,WNW,295,7.0,7.0,97,0.22,,---,0.41,VWS V14.01,2013-05-03 11:55:00,
2013-05-03 06:59:00,51.8,51.0,29.89,NW,316,0.0,7.0,97,0.23,,---,0.42,VWS V14.01,2013-05-03 11:59:00,
2013-05-03 07:00:00,51.7,50.9,29.89,NW,316,0.0,7.0,97,0.23,,---,0.42,VWS V14.01,2013-05-03 12:00:00,
2013-05-03 07:04:00,51.5,50.7,29.89,WNW,298,0.0,1.0,97,0.22,,---,0.43,VWS V14.01,2013-05-03 12:04:00,
2013-05-03 07:05:00,51.5,50.7,29.89,WNW,298,0.0,1.0,97,0.22,,---,0.43,VWS V14.01,2013-05-03 12:05:00,
2013-05-03 07:09:00,51.3,50.5,29.89,WNW,303,1.0,2.0,97,0.23,,---,0.44,VWS V14.01,2013-05-03 12:09:00,
2013-05-03 07:10:00,51.3,50.5,29.89,NW,307,0.0,2.0,97,0.23,,---,0.44,VWS V14.01,2013-05-03 12:10:00,
2013-05-03 07:14:00,51.1,50.3,29.89,NW,316,0.0,2.0,97,0.24,,---,0.45,VWS V14.01,2013-05-03 12:14:00,
2013-05-03 07:15:00,51.1,50.3,29.89,NW,316,0.0,2.0,97,0.24,,---,0.45,VWS V14.01,2013-05-03 12:15:00,
2013-05-03 07:19:00,50.9,50.1,29.89,WNW,292,1.0,5.0,97,0.23,,---,0.46,VWS V14.01,2013-05-03 12:19:00,
2013-05-03 07:20:00,50.9,50.1,29.89,WNW,292,0.0,5.0,97,0.23,,---,0.46,VWS V14.01,2013-05-03 12:20:00,
2013-05-03 07:24:00,50.6,49.8,29.89,WNW,292,0.0,5.0,97,0.24,,---,0.47,VWS V14.01,2013-05-03 12:24:00,
2013-05-03 07:25:00,50.6,49.8,29.89,WNW,292,1.0,5.0,97,0.24,,---,0.47,VWS V14.01,2013-05-03 12:25:00,
2013-05-03 07:29:00,50.1,49.3,29.90,WNW,300,0.0,5.0,97,0.25,,---,0.48,VWS V14.01,2013-05-03 12:29:00,
2013-05-03 07:30:00,50.1,49.3,29.90,NNW,333,0.0,5.0,97,0.25,,---,0.48,VWS V14.01,2013-05-03 12:30:00,
2013-05-03 07:31:00,50.0,49.2,29.90,NNW,333,1.0,1.0,97,0.21,,---,0.49,VWS V14.01,2013-05-03 12:31:00,
2013-05-03 07:34:00,49.9,49.1,29.90,West,262,0.0,1.0,97,0.22,,---,0.50,VWS V14.01,2013-05-03 12:34:00,
2013-05-03 07:35:00,49.8,49.0,29.90,West,262,0.0,1.0,97,0.23,,---,0.51,VWS V14.01,2013-05-03 12:35:00,
2013-05-03 07:36:00,49.8,49.0,29.90,West,262,0.0,1.0,97,0.23,,---,0.51,VWS V14.01,2013-05-03 12:36:00,
2013-05-03 07:39:00,49.5,48.7,29.90,NW,311,0.0,2.0,97,0.24,,---,0.52,VWS V14.01,2013-05-03 12:39:00,
2013-05-03 07:40:00,49.5,48.7,29.90,WNW,288,3.0,5.0,97,0.24,,---,0.52,VWS V14.01,2013-05-03 12:40:00,
2013-05-03 07:41:00,49.4,48.6,29.90,WNW,288,0.0,5.0,97,0.24,,---,0.52,VWS V14.01,2013-05-03 12:41:00,
2013-05-03 07:44:00,49.3,48.5,29.90,WNW,299,4.0,5.0,97,0.25,,---,0.53,VWS V14.01,2013-05-03 12:44:00,
2013-05-03 07:45:00,49.3,48.5,29.90,WNW,299,4.0,5.0,97,0.25,,---,0.53,VWS V14.01,2013-05-03 12:45:00,
2013-05-03 07:46:00,49.2,48.4,29.90,West,278,2.0,4.0,97,0.17,,---,0.53,VWS V14.01,2013-05-03 12:46:00,
2013-05-03 07:50:00,48.9,48.1,29.90,WNW,290,2.0,7.0,97,0.18,,---,0.54,VWS V14.01,2013-05-03 12:50:00,
2013-05-03 07:51:00,48.9,48.1,29.90,West,278,2.0,7.0,97,0.18,,---,0.54,VWS V14.01,2013-05-03 12:51:00,
2013-05-03 07:52:00,48.8,48.0,29.90,West,267,6.0,8.0,97,0.18,,---,0.54,VWS V14.01,2013-05-03 12:52:00,
2013-05-03 07:55:00,48.6,47.8,29.90,WNW,301,0.0,8.0,97,0.20,,---,0.56,VWS V14.01,2013-05-03 12:55:00,
2013-05-03 07:56:00,48.6,47.8,29.90,West,270,5.0,8.0,97,0.20,,---,0.56,VWS V14.01,2013-05-03 12:56:00,
2013-05-03 07:57:00,48.5,47.7,29.90,WNW,295,1.0,8.0,97,0.21,,---,0.57,VWS V14.01,2013-05-03 12:57:00,
2013-05-03 08:00:00,48.5,47.7,29.90,WNW,295,0.0,8.0,97,0.23,,---,0.59,VWS V14.01,2013-05-03 13:00:00,
2013-05-03 08:01:00,48.4,47.6,29.90,West,276,1.0,1.0,97,0.17,,---,0.59,VWS V14.01,2013-05-03 13:01:00,
2013-05-03 08:02:00,48.4,47.6,29.90,West,278,0.0,2.0,97,0.18,,---,0.60,VWS V14.01,2013-05-03 13:02:00,
2013-05-03 08:05:00,48.3,47.5,29.90,West,278,1.0,2.0,97,0.18,,---,0.60,VWS V14.01,2013-05-03 13:05:00,
2013-05-03 08:06:00,48.2,47.4,29.90,West,278,1.0,2.0,97,0.18,,---,0.60,VWS V14.01,2013-05-03 13:06:00,
2013-05-03 08:07:00,48.2,47.4,29.90,West,280,1.0,2.0,97,0.19,,---,0.61,VWS V14.01,2013-05-03 13:07:00,
2013-05-03 08:10:00,48.1,47.3,29.90,NW,305,0.0,7.0,97,0.19,,---,0.61,VWS V14.01,2013-05-03 13:10:00,
2013-05-03 08:11:00,48.0,47.2,29.90,WNW,300,2.0,7.0,97,0.19,,---,0.61,VWS V14.01,2013-05-03 13:11:00,
2013-05-03 08:12:00,47.9,47.1,29.90,NNW,340,1.0,7.0,97,0.20,,---,0.62,VWS V14.01,2013-05-03 13:12:00,
2013-05-03 08:15:00,47.8,47.0,29.90,West,277,2.0,7.0,97,0.20,,---,0.62,VWS V14.01,2013-05-03 13:15:00,
2013-05-03 08:16:00,47.8,47.0,29.90,West,280,0.0,1.0,97,0.16,,---,0.62,VWS V14.01,2013-05-03 13:16:00,
2013-05-03 08:17:00,47.8,47.0,29.90,WNW,285,0.0,4.0,97,0.16,,---,0.62,VWS V14.01,2013-05-03 13:17:00,
2013-05-03 08:20:00,47.8,47.0,29.90,WNW,288,1.0,4.0,97,0.16,,---,0.62,VWS V14.01,2013-05-03 13:20:00,
2013-05-03 08:21:00,47.8,47.0,29.90,WNW,289,0.0,4.0,97,0.16,,---,0.62,VWS V14.01,2013-05-03 13:21:00,
2013-05-03 08:23:00,47.7,46.9,29.90,West,278,2.0,5.0,97,0.16,,---,0.62,VWS V14.01,2013-05-03 13:23:00,
2013-05-03 08:25:00,47.7,46.9,29.91,WNW,298,1.0,5.0,97,0.16,,---,0.62,VWS V14.01,2013-05-03 13:25:00,
2013-05-03 08:26:00,47.7,46.9,29.91,WNW,299,0.0,5.0,97,0.16,,---,0.62,VWS V14.01,2013-05-03 13:26:00,
2013-05-03 08:28:00,47.7,46.9,29.91,West,280,0.0,5.0,97,0.17,,---,0.63,VWS V14.01,2013-05-03 13:28:00,
2013-05-03 08:30:00,47.5,46.7,29.91,North,10,3.0,9.0,97,0.17,,---,0.63,VWS V14.01,2013-05-03 13:30:00,
2013-05-03 08:31:00,47.5,46.7,29.91,WNW,297,1.0,1.0,97,0.15,,---,0.63,VWS V14.01,2013-05-03 13:31:00,
2013-05-03 08:33:00,47.4,46.6,29.91,WNW,297,2.0,2.0,97,0.15,,---,0.63,VWS V14.01,2013-05-03 13:33:00,
2013-05-03 08:35:00,47.3,46.5,29.91,NW,311,2.0,7.0,97,0.15,,---,0.63,VWS V14.01,2013-05-03 13:35:00,
2013-05-03 08:36:00,47.2,46.4,29.91,West,273,2.0,7.0,97,0.15,,---,0.63,VWS V14.01,2013-05-03 13:36:00,
2013-05-03 08:37:00,47.1,46.3,29.91,NW,305,1.0,8.0,97,0.15,,---,0.63,VWS V14.01,2013-05-03 13:37:00,
2013-05-03 08:38:00,47.1,46.3,29.91,NW,311,3.0,8.0,97,0.16,,---,0.64,VWS V14.01,2013-05-03 13:38:00,
2013-05-03 08:40:00,47.0,46.2,29.91,WNW,297,0.0,8.0,97,0.16,,---,0.64,VWS V14.01,2013-05-03 13:40:00,
2013-05-03 08:41:00,47.0,46.2,29.91,WNW,297,0.0,8.0,97,0.16,,---,0.64,VWS V14.01,2013-05-03 13:41:00,
2013-05-03 08:42:00,46.9,46.1,29.91,West,273,1.0,8.0,97,0.16,,---,0.64,VWS V14.01,2013-05-03 13:42:00,
2013-05-03 08:43:00,46.9,46.1,29.91,NW,318,1.0,8.0,97,0.17,,---,0.65,VWS V14.01,2013-05-03 13:43:00,
2013-05-03 08:46:00,46.8,46.0,29.91,NW,311,0.0,1.0,97,0.12,,---,0.65,VWS V14.01,2013-05-03 13:46:00,
2013-05-03 08:47:00,46.8,46.0,29.91,NNW,337,1.0,4.0,97,0.12,,---,0.65,VWS V14.01,2013-05-03 13:47:00,
2013-05-03 08:48:00,46.7,45.9,29.91,West,273,3.0,4.0,97,0.12,,---,0.65,VWS V14.01,2013-05-03 13:48:00,
2013-05-03 08:51:00,46.6,45.8,29.91,WNW,285,1.0,7.0,97,0.13,,---,0.66,VWS V14.01,2013-05-03 13:51:00,
2013-05-03 08:52:00,46.5,45.7,29.91,NW,311,1.0,7.0,97,0.13,,---,0.66,VWS V14.01,2013-05-03 13:52:00,
2013-05-03 08:53:00,46.5,45.7,29.91,NW,308,0.0,7.0,97,0.13,,---,0.66,VWS V14.01,2013-05-03 13:53:00,
2013-05-03 08:56:00,46.4,45.6,29.91,WNW,290,1.0,7.0,97,0.13,,---,0.66,VWS V14.01,2013-05-03 13:56:00,
2013-05-03 08:57:00,46.4,45.6,29.91,WNW,292,1.0,7.0,97,0.13,,---,0.66,VWS V14.01,2013-05-03 13:57:00,
2013-05-03 08:58:00,46.3,45.5,29.91,WNW,296,1.0,7.0,97,0.13,,---,0.66,VWS V14.01,2013-05-03 13:58:00,
2013-05-03 09:01:00,46.3,45.5,29.92,WNW,299,2.0,7.0,97,0.08,,---,0.67,VWS V14.01,2013-05-03 14:01:00,
2013-05-03 09:02:00,46.2,45.4,29.91,WNW,299,3.0,7.0,97,0.08,,---,0.67,VWS V14.01,2013-05-03 14:02:00,
2013-05-03 09:03:00,46.2,45.4,29.91,West,276,0.0,7.0,97,0.08,,---,0.67,VWS V14.01,2013-05-03 14:03:00,
2013-05-03 09:06:00,46.1,45.3,29.91,WNW,302,0.0,7.0,97,0.08,,---,0.67,VWS V14.01,2013-05-03 14:06:00,
2013-05-03 09:07:00,46.1,45.3,29.91,WNW,302,1.0,7.0,97,0.08,,---,0.67,VWS V14.01,2013-05-03 14:07:00,
2013-05-03 09:08:00,46.1,45.3,29.91,WNW,282,1.0,7.0,97,0.08,,---,0.67,VWS V14.01,2013-05-03 14:08:00,
2013-05-03 09:12:00,46.0,45.2,29.91,West,278,1.0,8.0,97,0.09,,---,0.68,VWS V14.01,2013-05-03 14:12:00,
2013-05-03 09:14:00,45.9,45.1,29.91,West,267,7.0,11.0,97,0.09,,---,0.68,VWS V14.01,2013-05-03 14:14:00,
2013-05-03 09:17:00,46.0,45.2,29.91,WNW,292,0.0,5.0,97,0.06,,---,0.68,VWS V14.01,2013-05-03 14:17:00,
2013-05-03 09:18:00,46.0,45.2,29.91,WNW,292,0.0,5.0,97,0.06,,---,0.68,VWS V14.01,2013-05-03 14:18:00,
2013-05-03 09:19:00,46.0,45.2,29.91,West,278,1.0,5.0,97,0.06,,---,0.68,VWS V14.01,2013-05-03 14:19:00,
2013-05-03 09:22:00,46.0,45.2,29.91,West,276,1.0,5.0,97,0.07,,---,0.69,VWS V14.01,2013-05-03 14:22:00,
2013-05-03 09:23:00,46.0,45.2,29.91,West,276,0.0,5.0,97,0.07,,---,0.69,VWS V14.01,2013-05-03 14:23:00,
2013-05-03 09:24:00,46.0,45.2,29.91,West,276,0.0,5.0,97,0.07,,---,0.69,VWS V14.01,2013-05-03 14:24:00,
2013-05-03 09:27:00,45.9,45.1,29.91,NW,304,1.0,5.0,97,0.07,,---,0.69,VWS V14.01,2013-05-03 14:27:00,
2013-05-03 09:28:00,45.9,45.1,29.91,WNW,285,0.0,5.0,97,0.07,,---,0.69,VWS V14.01,2013-05-03 14:28:00,
2013-05-03 09:29:00,45.7,44.9,29.91,North,1,0.0,5.0,97,0.07,,---,0.69,VWS V14.01,2013-05-03 14:29:00,
2013-05-03 09:32:00,45.7,44.9,29.91,NNW,330,0.0,0.0,97,0.06,,---,0.69,VWS V14.01,2013-05-03 14:32:00,
2013-05-03 09:33:00,45.6,44.8,29.91,NNW,337,1.0,1.0,97,0.06,,---,0.69,VWS V14.01,2013-05-03 14:33:00,
2013-05-03 09:35:00,45.5,44.7,29.91,WNW,288,4.0,7.0,97,0.06,,---,0.69,VWS V14.01,2013-05-03 14:35:00,
2013-05-03 09:37:00,45.5,44.7,29.91,WSW,247,0.0,7.0,97,0.07,,---,0.70,VWS V14.01,2013-05-03 14:37:00,
2013-05-03 09:38:00,45.5,44.7,29.91,WSW,247,0.0,7.0,97,0.07,,---,0.70,VWS V14.01,2013-05-03 14:38:00,
2013-05-03 09:40:00,45.5,44.7,29.91,WSW,247,0.0,7.0,97,0.08,,---,0.71,VWS V14.01,2013-05-03 14:40:00,
2013-05-03 09:42:00,45.4,44.6,29.91,WNW,299,1.0,7.0,97,0.08,,---,0.71,VWS V14.01,2013-05-03 14:42:00,
2013-05-03 09:43:00,45.4,44.6,29.91,WNW,301,3.0,9.0,97,0.08,,---,0.71,VWS V14.01,2013-05-03 14:43:00,
2013-05-03 09:45:00,45.3,44.5,29.91,WNW,301,1.0,9.0,97,0.08,,---,0.71,VWS V14.01,2013-05-03 14:45:00,
2013-05-03 09:48:00,45.3,44.5,29.91,NW,311,1.0,1.0,97,0.06,,---,0.71,VWS V14.01,2013-05-03 14:48:00,
2013-05-03 09:49:00,45.3,44.5,29.91,West,269,3.0,3.0,97,0.06,,---,0.71,VWS V14.01,2013-05-03 14:49:00,
2013-05-03 09:50:00,45.3,44.5,29.91,West,273,0.0,3.0,97,0.06,,---,0.71,VWS V14.01,2013-05-03 14:50:00,
2013-05-03 09:53:00,45.3,44.5,29.91,West,266,0.0,3.0,97,0.06,,---,0.71,VWS V14.01,2013-05-03 14:53:00,
2013-05-03 09:54:00,45.3,44.5,29.91,West,266,0.0,3.0,97,0.06,,---,0.71,VWS V14.01,2013-05-03 14:54:00,
2013-05-03 09:55:00,45.3,44.5,29.91,West,271,1.0,3.0,97,0.06,,---,0.71,VWS V14.01,2013-05-03 14:55:00,
2013-05-03 09:58:00,45.2,44.4,29.91,West,273,0.0,3.0,97,0.07,,---,0.72,VWS V14.01,2013-05-03 14:58:00,
2013-05-03 09:59:00,45.2,44.4,29.91,West,273,0.0,3.0,97,0.07,,---,0.72,VWS V14.01,2013-05-03 14:59:00,
2013-05-03 10:00:00,45.1,44.3,29.91,West,273,0.0,3.0,97,0.07,,---,0.72,VWS V14.01,2013-05-03 15:00:00,
2013-05-03 10:03:00,45.1,44.3,29.91,West,273,0.0,0.0,97,0.07,,---,0.73,VWS V14.01,2013-05-03 15:03:00,
2013-05-03 10:04:00,45.0,44.2,29.91,West,273,0.0,1.0,97,0.07,,---,0.73,VWS V14.01,2013-05-03 15:04:00,
2013-05-03 10:05:00,45.0,44.2,29.91,West,273,0.0,1.0,97,0.07,,---,0.73,VWS V14.01,2013-05-03 15:05:00,
2013-05-03 10:08:00,45.0,44.2,29.91,WNW,290,2.0,2.0,97,0.07,,---,0.73,VWS V14.01,2013-05-03 15:08:00,
2013-05-03 10:09:00,45.0,44.2,29.91,WNW,290,3.0,4.0,97,0.07,,---,0.73,VWS V14.01,2013-05-03 15:09:00,
2013-05-03 10:11:00,44.9,44.1,29.91,West,269,2.0,7.0,97,0.07,,---,0.73,VWS V14.01,2013-05-03 15:11:00,
2013-05-03 10:13:00,44.9,44.1,29.91,NNE,17,1.0,7.0,97,0.07,,---,0.73,VWS V14.01,2013-05-03 15:13:00,
2013-05-03 10:14:00,44.9,44.1,29.91,NW,309,3.0,7.0,97,0.07,,---,0.73,VWS V14.01,2013-05-03 15:14:00,
2013-05-03 10:16:00,44.8,44.0,29.91,West,280,0.0,2.0,97,0.05,,---,0.73,VWS V14.01,2013-05-03 15:16:00,
2013-05-03 10:18:00,44.7,43.9,29.92,WNW,290,0.0,7.0,97,0.05,,---,0.73,VWS V14.01,2013-05-03 15:18:00,
2013-05-03 10:19:00,44.7,43.6,29.92,NW,307,2.0,7.0,96,0.05,,---,0.73,VWS V14.01,2013-05-03 15:19:00,
2013-05-03 10:21:00,44.7,43.9,29.92,NNW,333,0.0,7.0,97,0.06,,---,0.74,VWS V14.01,2013-05-03 15:21:00,
2013-05-03 10:23:00,44.6,43.8,29.92,WNW,292,5.0,7.0,97,0.06,,---,0.74,VWS V14.01,2013-05-03 15:23:00,
2013-05-03 10:24:00,44.6,43.5,29.92,WNW,290,6.0,7.0,96,0.06,,---,0.74,VWS V14.01,2013-05-03 15:24:00,
2013-05-03 10:26:00,44.4,43.3,29.92,WNW,297,0.0,7.0,96,0.07,,---,0.75,VWS V14.01,2013-05-03 15:26:00,
2013-05-03 10:29:00,44.3,43.2,29.92,West,280,1.0,7.0,96,0.07,,---,0.75,VWS V14.01,2013-05-03 15:29:00,
2013-05-03 10:32:00,44.3,43.5,29.92,NW,323,0.0,2.0,97,0.06,,---,0.75,VWS V14.01,2013-05-03 15:32:00,
2013-05-03 10:34:00,44.3,43.5,29.92,NW,323,0.0,2.0,97,0.06,,---,0.75,VWS V14.01,2013-05-03 15:34:00,
2013-05-03 10:37:00,44.1,43.0,29.92,WNW,300,0.0,2.0,96,0.07,,---,0.76,VWS V14.01,2013-05-03 15:37:00,
2013-05-03 10:39:00,43.9,42.8,29.92,WNW,300,0.0,2.0,96,0.08,,---,0.77,VWS V14.01,2013-05-03 15:39:00,
2013-05-03 10:42:00,43.8,42.7,29.92,WNW,300,0.0,2.0,96,0.09,,---,0.78,VWS V14.01,2013-05-03 15:42:00,
2013-05-03 10:44:00,43.8,42.7,29.92,WNW,299,0.0,2.0,96,0.11,,---,0.80,VWS V14.01,2013-05-03 15:44:00,
2013-05-03 10:48:00,43.7,42.6,29.93,WNW,299,0.0,5.0,96,0.11,,---,0.82,VWS V14.01,2013-05-03 15:48:00,
2013-05-03 10:49:00,43.7,42.9,29.93,WNW,299,0.0,5.0,97,0.11,,---,0.82,VWS V14.01,2013-05-03 15:49:00,
2013-05-03 10:50:00,43.8,43.0,29.93,WNW,298,0.0,5.0,97,0.11,,---,0.82,VWS V14.01,2013-05-03 15:50:00,
2013-05-03 10:53:00,43.8,43.0,29.93,WNW,298,0.0,5.0,97,0.13,,---,0.84,VWS V14.01,2013-05-03 15:53:00,
2013-05-03 10:54:00,43.9,43.1,29.93,West,280,3.0,5.0,97,0.13,,---,0.84,VWS V14.01,2013-05-03 15:54:00,
2013-05-03 10:55:00,43.9,43.1,29.93,West,276,0.0,5.0,97,0.13,,---,0.84,VWS V14.01,2013-05-03 15:55:00,
2013-05-03 10:58:00,43.9,43.1,29.93,WNW,285,0.0,5.0,97,0.14,,---,0.85,VWS V14.01,2013-05-03 15:58:00,
2013-05-03 10:59:00,43.9,43.1,29.93,WNW,284,1.0,5.0,97,0.15,,---,0.86,VWS V14.01,2013-05-03 15:59:00,
2013-05-03 11:00:00,43.9,43.1,29.92,WNW,285,0.0,5.0,97,0.15,,---,0.86,VWS V14.01,2013-05-03 16:00:00,
2013-05-03 11:03:00,43.9,43.1,29.93,WNW,285,0.0,0.0,97,0.15,,---,0.87,VWS V14.01,2013-05-03 16:03:00,
2013-05-03 11:04:00,43.9,43.1,29.93,WNW,284,0.0,0.0,97,0.15,,---,0.87,VWS V14.01,2013-05-03 16:04:00,
2013-05-03 11:05:00,44.0,43.2,29.93,WNW,284,1.0,1.0,97,0.15,,---,0.87,VWS V14.01,2013-05-03 16:05:00,
2013-05-03 11:09:00,44.0,43.2,29.93,West,261,1.0,7.0,97,0.17,,---,0.89,VWS V14.01,2013-05-03 16:09:00,
2013-05-03 11:10:00,43.9,43.1,29.93,West,260,0.0,7.0,97,0.17,,---,0.89,VWS V14.01,2013-05-03 16:10:00,
2013-05-03 11:14:00,43.8,43.0,29.93,West,278,0.0,7.0,97,0.19,,---,0.91,VWS V14.01,2013-05-03 16:14:00,
2013-05-03 11:15:00,43.8,43.0,29.92,West,279,0.0,7.0,97,0.20,,---,0.92,VWS V14.01,2013-05-03 16:15:00,
2013-05-03 11:16:00,43.8,43.0,29.92,West,278,1.0,1.0,97,0.20,,---,0.93,VWS V14.01,2013-05-03 16:16:00,
2013-05-03 11:19:00,43.7,42.9,29.92,West,279,0.0,1.0,97,0.21,,---,0.94,VWS V14.01,2013-05-03 16:19:00,
2013-05-03 11:20:00,43.7,42.9,29.92,West,278,0.0,1.0,97,0.22,,---,0.95,VWS V14.01,2013-05-03 16:20:00,
2013-05-03 11:21:00,43.7,42.9,29.93,West,278,0.0,1.0,97,0.22,,---,0.95,VWS V14.01,2013-05-03 16:21:00,
2013-05-03 11:24:00,43.7,42.9,29.93,West,266,1.0,3.0,97,0.24,,---,0.97,VWS V14.01,2013-05-03 16:24:00,
2013-05-03 11:25:00,43.7,42.9,29.92,West,280,0.0,4.0,97,0.25,,---,0.98,VWS V14.01,2013-05-03 16:25:00,
2013-05-03 11:26:00,43.6,42.8,29.93,West,280,0.0,4.0,97,0.25,,---,0.98,VWS V14.01,2013-05-03 16:26:00,
2013-05-03 11:29:00,43.5,42.7,29.92,West,280,0.0,4.0,97,0.27,,---,1.00,VWS V14.01,2013-05-03 16:29:00,
2013-05-03 11:30:00,43.5,42.7,29.92,West,280,0.0,4.0,97,0.28,,---,1.01,VWS V14.01,2013-05-03 16:30:00,
2013-05-03 11:31:00,43.5,42.7,29.92,WNW,288,1.0,1.0,97,0.26,,---,1.01,VWS V14.01,2013-05-03 16:31:00,
2013-05-03 11:34:00,43.4,42.6,29.92,WNW,287,0.0,1.0,97,0.27,,---,1.02,VWS V14.01,2013-05-03 16:34:00,
2013-05-03 11:35:00,43.4,42.6,29.92,WNW,287,0.0,1.0,97,0.28,,---,1.03,VWS V14.01,2013-05-03 16:35:00,
2013-05-03 11:36:00,43.4,42.6,29.92,WNW,287,0.0,1.0,97,0.28,,---,1.03,VWS V14.01,2013-05-03 16:36:00,
2013-05-03 11:39:00,43.5,42.7,29.92,WNW,289,0.0,1.0,97,0.29,,---,1.04,VWS V14.01,2013-05-03 16:39:00,
2013-05-03 11:40:00,43.4,42.6,29.92,WNW,289,0.0,1.0,97,0.29,,---,1.04,VWS V14.01,2013-05-03 16:40:00,
2013-05-03 11:41:00,43.4,42.6,29.92,WNW,292,1.0,1.0,97,0.29,,---,1.04,VWS V14.01,2013-05-03 16:41:00,
2013-05-03 11:44:00,43.4,42.6,29.92,WNW,295,0.0,1.0,97,0.31,,---,1.06,VWS V14.01,2013-05-03 16:44:00,
2013-05-03 11:45:00,43.4,42.6,29.91,WNW,295,0.0,0.0,97,0.26,,---,1.06,VWS V14.01,2013-05-03 16:45:00,
2013-05-03 11:46:00,43.4,42.6,29.91,WNW,295,0.0,0.0,97,0.26,,---,1.06,VWS V14.01,2013-05-03 16:46:00,
2013-05-03 11:47:00,43.4,42.6,29.91,WNW,295,0.0,0.0,97,0.27,,---,1.07,VWS V14.01,2013-05-03 16:47:00,
2013-05-03 11:49:00,43.5,42.7,29.91,NW,311,1.0,1.0,97,0.29,,---,1.09,VWS V14.01,2013-05-03 16:49:00,
2013-05-03 11:51:00,43.5,42.7,29.90,NW,308,0.0,1.0,97,0.29,,---,1.09,VWS V14.01,2013-05-03 16:51:00,
2013-05-03 11:52:00,43.5,42.7,29.90,NW,308,0.0,1.0,97,0.30,,---,1.10,VWS V14.01,2013-05-03 16:52:00,
2013-05-03 11:54:00,43.5,42.7,29.91,NW,308,0.0,1.0,97,0.31,,---,1.11,VWS V14.01,2013-05-03 16:54:00,
2013-05-03 11:56:00,43.5,42.7,29.91,NW,307,0.0,1.0,97,0.31,,---,1.11,VWS V14.01,2013-05-03 16:56:00,
2013-05-03 11:57:00,43.5,42.7,29.91,WNW,289,0.0,1.0,97,0.32,,---,1.12,VWS V14.01,2013-05-03 16:57:00,
2013-05-03 12:00:00,43.5,42.7,29.91,WNW,287,0.0,1.0,97,0.32,,---,1.12,VWS V14.01,2013-05-03 17:00:00,
2013-05-03 12:01:00,43.5,42.7,29.91,NW,312,0.0,0.0,97,0.27,,---,1.13,VWS V14.01,2013-05-03 17:01:00,
2013-05-03 12:02:00,43.5,42.7,29.91,NW,314,0.0,0.0,97,0.27,,---,1.13,VWS V14.01,2013-05-03 17:02:00,
2013-05-03 12:05:00,43.5,42.7,29.91,WNW,294,0.0,1.0,97,0.29,,---,1.15,VWS V14.01,2013-05-03 17:05:00,
2013-05-03 12:06:00,43.5,42.7,29.91,WNW,294,0.0,1.0,97,0.30,,---,1.16,VWS V14.01,2013-05-03 17:06:00,
2013-05-03 12:07:00,43.5,42.7,29.91,WNW,294,0.0,1.0,97,0.31,,---,1.17,VWS V14.01,2013-05-03 17:07:00,
2013-05-03 12:10:00,43.5,42.7,29.91,West,273,0.0,1.0,97,0.33,,---,1.19,VWS V14.01,2013-05-03 17:10:00,
2013-05-03 12:11:00,43.5,42.7,29.91,WNW,299,0.0,3.0,97,0.34,,---,1.20,VWS V14.01,2013-05-03 17:11:00,
2013-05-03 12:12:00,43.5,42.7,29.91,WNW,299,1.0,3.0,97,0.34,,---,1.20,VWS V14.01,2013-05-03 17:12:00,
2013-05-03 12:15:00,43.4,42.6,29.91,West,277,0.0,3.0,97,0.38,,---,1.24,VWS V14.01,2013-05-03 17:15:00,
2013-05-03 12:16:00,43.5,42.7,29.91,West,278,0.0,0.0,97,0.34,,---,1.26,VWS V14.01,2013-05-03 17:16:00,
2013-05-03 12:17:00,43.5,42.7,29.91,West,277,0.0,0.0,97,0.34,,---,1.26,VWS V14.01,2013-05-03 17:17:00,
2013-05-03 12:20:00,43.5,42.7,29.91,West,278,0.0,1.0,97,0.37,,---,1.29,VWS V14.01,2013-05-03 17:20:00,
2013-05-03 12:21:00,43.5,42.7,29.91,West,278,0.0,1.0,97,0.38,,---,1.30,VWS V14.01,2013-05-03 17:21:00,
2013-05-03 12:22:00,43.5,42.7,29.91,West,278,0.0,1.0,97,0.38,,---,1.30,VWS V14.01,2013-05-03 17:22:00,
2013-05-03 12:23:00,43.6,42.8,29.91,WNW,285,0.0,4.0,97,0.40,,---,1.32,VWS V14.01,2013-05-03 17:23:00,
2013-05-03 12:25:00,43.7,43.0,29.91,WNW,287,0.0,3.0,97,0.36,,,1.34,weatherlink.com 1.10,2013-05-03 17:25:00,
2013-05-03 12:26:00,43.7,42.9,29.91,West,269,0.0,4.0,97,0.44,,---,1.36,VWS V14.01,2013-05-03 17:26:00,
2013-05-03 12:27:00,43.7,42.9,29.91,West,270,0.0,4.0,97,0.44,,---,1.36,VWS V14.01,2013-05-03 17:27:00,
2013-05-03 12:28:00,43.8,43.0,29.91,West,269,0.0,4.0,97,0.45,,---,1.37,VWS V14.01,2013-05-03 17:28:00,
2013-05-03 12:30:00,43.8,43.0,29.91,WNW,295,6.0,6.0,97,0.46,,---,1.38,VWS V14.01,2013-05-03 17:30:00,
2013-05-03 12:31:00,43.7,42.9,29.91,WNW,291,2.0,7.0,97,0.38,,---,1.39,VWS V14.01,2013-05-03 17:31:00,
2013-05-03 12:32:00,43.7,42.9,29.91,WNW,285,3.0,7.0,97,0.38,,---,1.39,VWS V14.01,2013-05-03 17:32:00,
2013-05-03 12:33:00,43.7,42.9,29.91,WNW,284,7.0,7.0,97,0.38,,---,1.39,VWS V14.01,2013-05-03 17:33:00,
2013-05-03 12:35:00,43.6,42.8,29.91,WNW,283,3.0,7.0,97,0.39,,---,1.40,VWS V14.01,2013-05-03 17:35:00,
2013-05-03 12:37:00,43.6,42.8,29.92,West,273,3.0,7.0,97,0.40,,---,1.41,VWS V14.01,2013-05-03 17:37:00,
2013-05-03 12:38:00,43.5,42.7,29.92,WNW,289,4.0,7.0,97,0.40,,---,1.41,VWS V14.01,2013-05-03 17:38:00,
2013-05-03 12:41:00,43.5,42.7,29.91,West,261,4.0,7.0,97,0.40,,---,1.41,VWS V14.01,2013-05-03 17:41:00,
2013-05-03 12:42:00,43.5,42.7,29.91,West,276,3.0,7.0,97,0.41,,---,1.42,VWS V14.01,2013-05-03 17:42:00,
2013-05-03 12:43:00,43.5,42.7,29.91,West,275,5.0,7.0,97,0.41,,---,1.42,VWS V14.01,2013-05-03 17:43:00,
2013-05-03 12:46:00,43.5,42.7,29.91,WNW,297,2.0,4.0,97,0.37,,---,1.43,VWS V14.01,2013-05-03 17:46:00,
2013-05-03 12:47:00,43.5,42.7,29.91,West,280,5.0,7.0,97,0.37,,---,1.43,VWS V14.01,2013-05-03 17:47:00,
2013-05-03 12:48:00,43.5,42.7,29.91,WNW,300,1.0,7.0,97,0.38,,---,1.44,VWS V14.01,2013-05-03 17:48:00,
2013-05-03 12:51:00,43.7,42.9,29.91,NW,316,1.0,10.0,97,0.39,,---,1.45,VWS V14.01,2013-05-03 17:51:00,
2013-05-03 12:52:00,43.6,42.8,29.91,NW,316,0.0,10.0,97,0.39,,---,1.45,VWS V14.01,2013-05-03 17:52:00,
2013-05-03 12:53:00,43.7,42.9,29.91,NW,314,0.0,10.0,97,0.39,,---,1.45,VWS V14.01,2013-05-03 17:53:00,
2013-05-03 12:57:00,43.7,42.9,29.91,NW,309,0.0,10.0,97,0.40,,---,1.46,VWS V14.01,2013-05-03 17:57:00,
2013-05-03 12:58:00,43.7,42.9,29.91,West,280,0.0,10.0,97,0.40,,---,1.46,VWS V14.01,2013-05-03 17:58:00,
2013-05-03 13:02:00,43.8,43.0,29.91,West,268,5.0,8.0,97,0.35,,---,1.48,VWS V14.01,2013-05-03 18:02:00,
2013-05-03 13:03:00,43.8,43.0,29.91,West,274,6.0,10.0,97,0.35,,---,1.48,VWS V14.01,2013-05-03 18:03:00,
2013-05-03 13:04:00,43.8,43.0,29.90,WNW,297,2.0,10.0,97,0.35,,---,1.48,VWS V14.01,2013-05-03 18:04:00,
2013-05-03 13:07:00,43.7,42.9,29.90,WNW,289,0.0,10.0,97,0.37,,---,1.50,VWS V14.01,2013-05-03 18:07:00,
2013-05-03 13:08:00,43.7,42.9,29.90,NW,315,0.0,10.0,97,0.38,,---,1.51,VWS V14.01,2013-05-03 18:08:00,
2013-05-03 13:09:00,43.6,42.8,29.90,WNW,292,1.0,10.0,97,0.38,,---,1.51,VWS V14.01,2013-05-03 18:09:00,
2013-05-03 13:12:00,43.4,42.3,29.91,West,273,4.0,12.0,96,0.39,,---,1.52,VWS V14.01,2013-05-03 18:12:00,
2013-05-03 13:13:00,43.3,42.2,29.91,WNW,282,3.0,12.0,96,0.39,,---,1.52,VWS V14.01,2013-05-03 18:13:00,
2013-05-03 13:14:00,43.3,42.2,29.91,NW,321,3.0,12.0,96,0.39,,---,1.52,VWS V14.01,2013-05-03 18:14:00,
2013-05-03 13:17:00,43.1,42.0,29.91,WNW,288,4.0,11.0,96,0.30,,---,1.54,VWS V14.01,2013-05-03 18:17:00,
2013-05-03 13:18:00,43.1,42.0,29.91,NW,309,3.0,11.0,96,0.30,,---,1.54,VWS V14.01,2013-05-03 18:18:00,
2013-05-03 13:19:00,43.1,42.0,29.91,WNW,287,5.0,11.0,96,0.30,,---,1.54,VWS V14.01,2013-05-03 18:19:00,
2013-05-03 13:23:00,43.1,42.0,29.91,WNW,285,8.0,11.0,96,0.33,,---,1.57,VWS V14.01,2013-05-03 18:23:00,
2013-05-03 13:24:00,43.1,42.0,29.91,West,270,6.0,11.0,96,0.33,,---,1.57,VWS V14.01,2013-05-03 18:24:00,
2013-05-03 13:25:00,43.0,41.9,29.91,WNW,290,3.0,11.0,96,0.33,,---,1.57,VWS V14.01,2013-05-03 18:25:00,
2013-05-03 13:28:00,43.1,42.3,29.91,WNW,299,0.0,11.0,97,0.34,,---,1.58,VWS V14.01,2013-05-03 18:28:00,
2013-05-03 13:29:00,43.1,42.3,29.91,NW,307,2.0,11.0,97,0.35,,---,1.59,VWS V14.01,2013-05-03 18:29:00,
2013-05-03 13:30:00,43.2,42.4,29.91,West,274,6.0,11.0,97,0.35,,---,1.59,VWS V14.01,2013-05-03 18:30:00,
2013-05-03 13:33:00,43.2,42.4,29.91,WNW,294,5.0,7.0,97,0.22,,---,1.60,VWS V14.01,2013-05-03 18:33:00,
2013-05-03 13:34:00,43.2,42.4,29.91,WNW,283,3.0,7.0,97,0.22,,---,1.60,VWS V14.01,2013-05-03 18:34:00,
2013-05-03 13:35:00,43.3,42.5,29.91,NW,309,4.0,7.0,97,0.22,,---,1.60,VWS V14.01,2013-05-03 18:35:00,
2013-05-03 13:38:00,43.5,42.7,29.92,WNW,285,3.0,7.0,97,0.22,,---,1.60,VWS V14.01,2013-05-03 18:38:00,
2013-05-03 13:39:00,43.5,42.7,29.92,WNW,287,3.0,7.0,97,0.22,,---,1.60,VWS V14.01,2013-05-03 18:39:00,
2013-05-03 13:40:00,43.6,42.8,29.92,WNW,290,10.0,10.0,97,0.22,,---,1.60,VWS V14.01,2013-05-03 18:40:00,
2013-05-03 13:43:00,43.4,42.6,29.91,WSW,255,3.0,10.0,97,0.23,,---,1.61,VWS V14.01,2013-05-03 18:43:00,
2013-05-03 13:44:00,43.5,42.7,29.91,WSW,255,0.0,10.0,97,0.23,,---,1.61,VWS V14.01,2013-05-03 18:44:00,
2013-05-03 13:45:00,43.5,42.7,29.91,WNW,290,0.0,10.0,97,0.23,,---,1.61,VWS V14.01,2013-05-03 18:45:00,
2013-05-03 13:48:00,43.6,42.8,29.91,WSW,250,1.0,6.0,97,0.18,,---,1.61,VWS V14.01,2013-05-03 18:48:00,
2013-05-03 13:49:00,43.6,42.8,29.90,WSW,251,0.0,6.0,97,0.18,,---,1.61,VWS V14.01,2013-05-03 18:49:00,
2013-05-03 13:51:00,43.6,42.8,29.90,WNW,283,1.0,6.0,97,0.19,,---,1.62,VWS V14.01,2013-05-03 18:51:00,
2013-05-03 13:53:00,43.5,42.7,29.91,NW,323,1.0,6.0,97,0.20,,---,1.63,VWS V14.01,2013-05-03 18:53:00,
2013-05-03 13:54:00,43.5,42.7,29.91,WNW,285,3.0,6.0,97,0.20,,---,1.63,VWS V14.01,2013-05-03 18:54:00,
2013-05-03 13:56:00,43.3,42.2,29.90,WNW,284,9.0,12.0,96,0.21,,---,1.64,VWS V14.01,2013-05-03 18:56:00,
2013-05-03 13:58:00,43.1,42.0,29.91,West,280,7.0,12.0,96,0.21,,---,1.64,VWS V14.01,2013-05-03 18:58:00,
2013-05-03 13:59:00,43.2,42.1,29.91,WNW,297,6.0,12.0,96,0.22,,---,1.65,VWS V14.01,2013-05-03 18:59:00,
2013-05-03 14:01:00,43.1,42.0,29.91,WNW,282,1.0,7.0,96,0.18,,---,1.65,VWS V14.01,2013-05-03 19:01:00,
2013-05-03 14:03:00,43.1,42.0,29.91,West,274,4.0,7.0,96,0.19,,---,1.66,VWS V14.01,2013-05-03 19:03:00,
2013-05-03 14:04:00,43.1,42.0,29.91,WNW,294,4.0,7.0,96,0.20,,---,1.67,VWS V14.01,2013-05-03 19:04:00,
2013-05-03 14:05:00,43.1,42.0,29.91,WNW,291,3.0,7.0,96,0.20,,---,1.67,VWS V14.01,2013-05-03 19:05:00,
2013-05-03 14:06:00,43.1,42.0,29.92,WNW,287,6.0,7.0,96,0.20,,---,1.67,VWS V14.01,2013-05-03 19:06:00,
2013-05-03 14:09:00,43.0,42.0,29.91,WNW,285,9.0,11.0,96,0.18,,,1.69,weatherlink.com 1.10,2013-05-03 19:09:00,
2013-05-03 14:10:00,42.9,41.8,29.91,WNW,292,2.0,11.0,96,0.22,,---,1.69,VWS V14.01,2013-05-03 19:10:00,
2013-05-03 14:11:00,42.9,41.8,29.91,West,280,8.0,11.0,96,0.23,,---,1.70,VWS V14.01,2013-05-03 19:11:00,
2013-05-03 14:14:00,42.9,41.8,29.91,West,275,1.0,11.0,96,0.24,,---,1.71,VWS V14.01,2013-05-03 19:14:00,
2013-05-03 14:15:00,42.9,41.8,29.91,West,266,8.0,11.0,96,0.24,,---,1.71,VWS V14.01,2013-05-03 19:15:00,
2013-05-03 14:16:00,42.8,41.7,29.92,WNW,300,0.0,8.0,96,0.19,,---,1.72,VWS V14.01,2013-05-03 19:16:00,
2013-05-03 14:19:00,42.8,41.7,29.91,West,278,1.0,8.0,96,0.20,,---,1.73,VWS V14.01,2013-05-03 19:19:00,
2013-05-03 14:20:00,42.8,41.7,29.91,West,266,2.0,8.0,96,0.20,,---,1.73,VWS V14.01,2013-05-03 19:20:00,
2013-05-03 14:21:00,42.9,42.1,29.91,West,274,0.0,8.0,97,0.21,,---,1.74,VWS V14.01,2013-05-03 19:21:00,
2013-05-03 14:24:00,43.0,42.2,29.91,WNW,298,0.0,8.0,97,0.22,,---,1.75,VWS V14.01,2013-05-03 19:24:00,
2013-05-03 14:25:00,43.1,42.3,29.91,WNW,299,0.0,8.0,97,0.22,,---,1.75,VWS V14.01,2013-05-03 19:25:00,
2013-05-03 14:26:00,43.1,42.3,29.91,WNW,288,4.0,8.0,97,0.23,,---,1.76,VWS V14.01,2013-05-03 19:26:00,
2013-05-03 14:29:00,43.0,42.2,29.91,West,271,1.0,8.0,97,0.24,,---,1.77,VWS V14.01,2013-05-03 19:29:00,
2013-05-03 14:30:00,43.0,42.2,29.92,WSW,240,2.0,8.0,97,0.24,,---,1.77,VWS V14.01,2013-05-03 19:30:00,
2013-05-03 14:31:00,42.9,41.8,29.91,WNW,290,4.0,4.0,96,0.18,,---,1.77,VWS V14.01,2013-05-03 19:31:00,
2013-05-03 14:32:00,42.9,41.8,29.92,WNW,288,3.0,10.0,96,0.18,,---,1.77,VWS V14.01,2013-05-03 19:32:00,
2013-05-03 14:35:00,42.7,41.6,29.92,West,280,8.0,12.0,96,0.20,,---,1.79,VWS V14.01,2013-05-03 19:35:00,
2013-05-03 14:36:00,42.6,41.5,29.92,West,280,5.0,12.0,96,0.20,,---,1.79,VWS V14.01,2013-05-03 19:36:00,
2013-05-03 14:37:00,42.6,41.5,29.92,WNW,302,2.0,12.0,96,0.21,,---,1.80,VWS V14.01,2013-05-03 19:37:00,
2013-05-03 14:40:00,42.6,41.5,29.91,WNW,298,3.0,12.0,96,0.22,,---,1.81,VWS V14.01,2013-05-03 19:40:00,
2013-05-03 14:41:00,42.6,41.5,29.91,West,276,2.0,12.0,96,0.22,,---,1.81,VWS V14.01,2013-05-03 19:41:00,
2013-05-03 14:43:00,42.7,41.6,29.92,WNW,289,2.0,12.0,96,0.23,,---,1.82,VWS V14.01,2013-05-03 19:43:00,
2013-05-03 14:45:00,42.7,41.6,29.92,WNW,283,6.0,12.0,96,0.23,,---,1.82,VWS V14.01,2013-05-03 19:45:00,
2013-05-03 14:46:00,42.7,41.6,29.92,WNW,292,2.0,3.0,96,0.22,,---,1.83,VWS V14.01,2013-05-03 19:46:00,
2013-05-03 14:47:00,42.7,41.6,29.92,WNW,285,6.0,7.0,96,0.22,,---,1.83,VWS V14.01,2013-05-03 19:47:00,
2013-05-03 14:48:00,42.7,41.6,29.92,NW,314,2.0,7.0,96,0.22,,---,1.83,VWS V14.01,2013-05-03 19:48:00,
2013-05-03 14:50:00,42.7,41.6,29.93,WNW,292,6.0,10.0,96,0.22,,---,1.83,VWS V14.01,2013-05-03 19:50:00,
2013-05-03 14:51:00,42.7,41.6,29.93,WNW,286,7.0,10.0,96,0.22,,---,1.83,VWS V14.01,2013-05-03 19:51:00,
2013-05-03 14:52:00,42.7,41.6,29.92,West,271,5.0,10.0,96,0.22,,---,1.83,VWS V14.01,2013-05-03 19:52:00,
2013-05-03 14:53:00,42.7,41.6,29.92,WNW,285,8.0,10.0,96,0.22,,---,1.83,VWS V14.01,2013-05-03 19:53:00,
2013-05-03 14:55:00,42.8,41.7,29.92,West,276,4.0,10.0,96,0.22,,---,1.83,VWS V14.01,2013-05-03 19:55:00,
2013-05-03 14:56:00,42.8,41.7,29.92,West,279,4.0,10.0,96,0.23,,---,1.84,VWS V14.01,2013-05-03 19:56:00,
2013-05-03 14:57:00,42.8,41.7,29.92,WNW,290,3.0,10.0,96,0.23,,---,1.84,VWS V14.01,2013-05-03 19:57:00,
2013-05-03 14:58:00,42.9,41.8,29.92,WNW,287,2.0,10.0,96,0.24,,---,1.85,VWS V14.01,2013-05-03 19:58:00,
2013-05-03 15:00:00,43.0,41.9,29.92,WNW,290,4.0,10.0,96,0.25,,---,1.86,VWS V14.01,2013-05-03 20:00:00,
2013-05-03 15:01:00,43.0,42.2,29.92,WNW,283,1.0,4.0,97,0.21,,---,1.86,VWS V14.01,2013-05-03 20:01:00,
2013-05-03 15:02:00,43.1,42.3,29.92,WNW,289,1.0,6.0,97,0.21,,---,1.86,VWS V14.01,2013-05-03 20:02:00,
2013-05-03 15:03:00,43.1,42.3,29.92,WNW,290,2.0,6.0,97,0.22,,---,1.87,VWS V14.01,2013-05-03 20:03:00,
2013-05-03 15:05:00,43.1,42.0,29.92,WNW,282,3.0,9.0,96,0.22,,---,1.87,VWS V14.01,2013-05-03 20:05:00,
2013-05-03 15:06:00,43.1,42.0,29.92,WNW,292,5.0,10.0,96,0.22,,---,1.87,VWS V14.01,2013-05-03 20:06:00,
2013-05-03 15:07:00,43.1,42.0,29.92,WNW,282,6.0,10.0,96,0.22,,---,1.87,VWS V14.01,2013-05-03 20:07:00,
2013-05-03 15:08:00,43.2,42.4,29.92,WNW,296,3.0,10.0,97,0.23,,---,1.88,VWS V14.01,2013-05-03 20:08:00,
2013-05-03 15:10:00,43.4,42.6,29.92,WNW,296,2.0,10.0,97,0.23,,---,1.88,VWS V14.01,2013-05-03 20:10:00,
2013-05-03 15:11:00,43.4,42.6,29.92,WNW,294,1.0,10.0,97,0.23,,---,1.88,VWS V14.01,2013-05-03 20:11:00,
2013-05-03 15:12:00,43.5,42.7,29.92,NW,307,1.0,10.0,97,0.24,,---,1.89,VWS V14.01,2013-05-03 20:12:00,
2013-05-03 15:13:00,43.5,42.7,29.91,WNW,300,1.0,10.0,97,0.24,,---,1.89,VWS V14.01,2013-05-03 20:13:00,
2013-05-03 15:15:00,43.7,42.9,29.91,West,262,6.0,10.0,97,0.25,,---,1.90,VWS V14.01,2013-05-03 20:15:00,
2013-05-03 15:16:00,43.7,42.9,29.91,NW,307,6.0,7.0,97,0.18,,---,1.90,VWS V14.01,2013-05-03 20:16:00,
2013-05-03 15:17:00,43.7,42.9,29.91,WNW,302,8.0,8.0,97,0.18,,---,1.90,VWS V14.01,2013-05-03 20:17:00,
2013-05-03 15:18:00,43.6,43.0,29.91,WNW,294,15.0,15.0,97,0.17,,,1.90,weatherlink.com 1.10,2013-05-03 20:18:00,
2013-05-03 15:19:00,43.5,42.4,29.92,NW,308,11.0,11.0,96,0.18,,---,1.90,VWS V14.01,2013-05-03 20:19:00,
2013-05-03 15:21:00,43.4,42.3,29.92,NW,307,5.0,13.0,96,0.18,,---,1.90,VWS V14.01,2013-05-03 20:21:00,
2013-05-03 15:22:00,43.4,42.3,29.93,West,273,4.0,13.0,96,0.19,,---,1.91,VWS V14.01,2013-05-03 20:22:00,
2013-05-03 15:23:00,43.4,42.3,29.93,WNW,299,4.0,13.0,96,0.19,,---,1.91,VWS V14.01,2013-05-03 20:23:00,
2013-05-03 15:24:00,43.4,42.3,29.93,WNW,291,7.0,13.0,96,0.19,,---,1.91,VWS V14.01,2013-05-03 20:24:00,
2013-05-03 15:25:00,43.5,42.4,29.94,West,269,12.0,13.0,96,0.19,,---,1.91,VWS V14.01,2013-05-03 20:25:00,
2013-05-03 15:27:00,43.3,42.2,29.93,WNW,299,4.0,16.0,96,0.19,,---,1.91,VWS V14.01,2013-05-03 20:27:00,
2013-05-03 15:28:00,43.2,41.9,29.93,NNW,330,5.0,16.0,95,0.19,,---,1.91,VWS V14.01,2013-05-03 20:28:00,
2013-05-03 15:29:00,43.2,41.9,29.93,NW,305,3.0,16.0,95,0.20,,---,1.92,VWS V14.01,2013-05-03 20:29:00,
2013-05-03 15:31:00,43.1,41.8,29.93,NW,320,5.0,7.0,95,0.15,,---,1.92,VWS V14.01,2013-05-03 20:31:00,
2013-05-03 15:32:00,43.0,41.7,29.92,West,274,4.0,7.0,95,0.15,,---,1.92,VWS V14.01,2013-05-03 20:32:00,
2013-05-03 15:33:00,43.0,41.7,29.92,WNW,295,2.0,9.0,95,0.16,,---,1.93,VWS V14.01,2013-05-03 20:33:00,
2013-05-03 15:34:00,43.0,41.7,29.91,WNW,294,1.0,9.0,95,0.16,,---,1.93,VWS V14.01,2013-05-03 20:34:00,
2013-05-03 15:36:00,43.0,41.9,29.92,NNW,333,1.0,9.0,96,0.17,,---,1.94,VWS V14.01,2013-05-03 20:36:00,
2013-05-03 15:37:00,43.0,41.9,29.92,North,349,2.0,9.0,96,0.18,,---,1.95,VWS V14.01,2013-05-03 20:37:00,
2013-05-03 15:38:00,43.0,41.9,29.92,West,278,8.0,9.0,96,0.19,,---,1.96,VWS V14.01,2013-05-03 20:38:00,
2013-05-03 15:39:00,43.0,41.9,29.92,NW,325,1.0,9.0,96,0.19,,---,1.96,VWS V14.01,2013-05-03 20:39:00,
2013-05-03 15:41:00,43.0,41.9,29.91,West,279,2.0,9.0,96,0.20,,---,1.97,VWS V14.01,2013-05-03 20:41:00,
2013-05-03 15:42:00,43.0,41.9,29.92,NNW,333,1.0,9.0,96,0.21,,---,1.98,VWS V14.01,2013-05-03 20:42:00,
2013-05-03 15:43:00,43.0,41.9,29.92,WNW,288,0.0,9.0,96,0.21,,---,1.98,VWS V14.01,2013-05-03 20:43:00,
2013-05-03 15:44:00,42.9,41.8,29.92,West,276,5.0,9.0,96,0.21,,---,1.98,VWS V14.01,2013-05-03 20:44:00,
2013-05-03 15:46:00,43.0,41.9,29.92,West,274,3.0,3.0,96,0.16,,---,1.99,VWS V14.01,2013-05-03 20:46:00,
2013-05-03 15:47:00,43.0,41.9,29.92,WNW,282,0.0,4.0,96,0.16,,---,1.99,VWS V14.01,2013-05-03 20:47:00,
2013-05-03 15:48:00,43.0,41.9,29.92,WNW,282,0.0,4.0,96,0.16,,---,1.99,VWS V14.01,2013-05-03 20:48:00,
2013-05-03 15:49:00,43.0,41.9,29.92,West,281,0.0,4.0,96,0.17,,---,2.00,VWS V14.01,2013-05-03 20:49:00,
2013-05-03 15:50:00,43.1,42.0,29.92,West,281,0.0,4.0,96,0.17,,---,2.00,VWS V14.01,2013-05-03 20:50:00,
2013-05-03 15:51:00,43.1,42.0,29.92,WNW,282,1.0,4.0,96,0.17,,---,2.00,VWS V14.01,2013-05-03 20:51:00,
2013-05-03 15:53:00,43.1,42.0,29.92,WNW,285,1.0,4.0,96,0.17,,---,2.00,VWS V14.01,2013-05-03 20:53:00,
2013-05-03 15:54:00,43.1,42.0,29.92,WNW,283,5.0,5.0,96,0.17,,---,2.00,VWS V14.01,2013-05-03 20:54:00,
2013-05-03 15:55:00,43.2,42.1,29.92,WNW,290,4.0,5.0,96,0.17,,---,2.00,VWS V14.01,2013-05-03 20:55:00,
2013-05-03 15:56:00,43.2,42.1,29.93,WNW,300,3.0,6.0,96,0.17,,---,2.00,VWS V14.01,2013-05-03 20:56:00,
2013-05-03 15:58:00,43.2,42.1,29.93,West,264,6.0,9.0,96,0.18,,---,2.01,VWS V14.01,2013-05-03 20:58:00,
2013-05-03 15:59:00,43.1,42.0,29.93,West,263,10.0,14.0,96,0.18,,---,2.01,VWS V14.01,2013-05-03 20:59:00,
2013-05-03 16:00:00,43.1,42.0,29.93,WNW,289,2.0,14.0,96,0.18,,---,2.01,VWS V14.01,2013-05-03 21:00:00,
2013-05-03 16:01:00,43.1,42.0,29.92,West,259,4.0,7.0,96,0.15,,---,2.01,VWS V14.01,2013-05-03 21:01:00,
2013-05-03 16:03:00,43.0,41.9,29.92,WNW,285,7.0,12.0,96,0.16,,---,2.02,VWS V14.01,2013-05-03 21:03:00,
2013-05-03 16:04:00,43.0,41.9,29.93,West,259,1.0,12.0,96,0.16,,---,2.02,VWS V14.01,2013-05-03 21:04:00,
2013-05-03 16:05:00,43.0,41.9,29.93,West,278,5.0,12.0,96,0.16,,---,2.02,VWS V14.01,2013-05-03 21:05:00,
2013-05-03 16:06:00,42.9,41.8,29.93,NW,305,6.0,12.0,96,0.16,,---,2.02,VWS V14.01,2013-05-03 21:06:00,
2013-05-03 16:08:00,42.9,41.8,29.93,West,278,7.0,12.0,96,0.16,,---,2.02,VWS V14.01,2013-05-03 21:08:00,
2013-05-03 16:09:00,42.9,41.6,29.93,NW,326,8.0,12.0,95,0.17,,---,2.03,VWS V14.01,2013-05-03 21:09:00,
2013-05-03 16:10:00,42.9,41.6,29.94,WNW,292,8.0,12.0,95,0.17,,---,2.03,VWS V14.01,2013-05-03 21:10:00,
2013-05-03 16:11:00,42.8,41.5,29.94,WNW,283,5.0,12.0,95,0.18,,---,2.04,VWS V14.01,2013-05-03 21:11:00,
2013-05-03 16:13:00,42.8,41.5,29.94,West,270,6.0,12.0,95,0.19,,---,2.05,VWS V14.01,2013-05-03 21:13:00,
2013-05-03 16:14:00,42.8,41.5,29.94,NW,308,2.0,12.0,95,0.20,,---,2.06,VWS V14.01,2013-05-03 21:14:00,
2013-05-03 16:15:00,42.8,41.5,29.94,WNW,295,9.0,12.0,95,0.20,,---,2.06,VWS V14.01,2013-05-03 21:15:00,
2013-05-03 16:16:00,42.8,41.7,29.93,NW,304,3.0,7.0,96,0.16,,---,2.06,VWS V14.01,2013-05-03 21:16:00,
2013-05-03 16:18:00,42.8,41.7,29.92,WNW,302,1.0,7.0,96,0.17,,---,2.07,VWS V14.01,2013-05-03 21:18:00,
2013-05-03 16:20:00,42.8,41.7,29.92,West,273,0.0,7.0,96,0.17,,---,2.07,VWS V14.01,2013-05-03 21:20:00,
2013-05-03 16:21:00,42.8,41.7,29.93,West,273,7.0,8.0,96,0.18,,---,2.08,VWS V14.01,2013-05-03 21:21:00,
2013-05-03 16:23:00,42.7,41.6,29.93,NW,311,0.0,12.0,96,0.18,,---,2.08,VWS V14.01,2013-05-03 21:23:00,
2013-05-03 16:25:00,42.8,41.7,29.93,WNW,295,2.0,12.0,96,0.18,,---,2.08,VWS V14.01,2013-05-03 21:25:00,
2013-05-03 16:27:00,42.8,41.7,29.93,WNW,290,4.0,12.0,96,0.19,,---,2.09,VWS V14.01,2013-05-03 21:27:00,
2013-05-03 16:28:00,42.8,41.7,29.93,NW,305,9.0,14.0,96,0.19,,---,2.09,VWS V14.01,2013-05-03 21:28:00,
2013-05-03 16:29:00,42.8,41.7,29.93,NW,305,9.0,14.0,96,0.19,,---,2.09,VWS V14.01,2013-05-03 21:29:00,
2013-05-03 16:30:00,42.8,41.7,29.93,WNW,294,7.0,14.0,96,0.19,,---,2.09,VWS V14.01,2013-05-03 21:30:00,
2013-05-03 16:32:00,42.8,41.7,29.93,WNW,286,5.0,8.0,96,0.17,,---,2.09,VWS V14.01,2013-05-03 21:32:00,
2013-05-03 16:34:00,42.7,41.6,29.93,NW,323,1.0,11.0,96,0.17,,---,2.09,VWS V14.01,2013-05-03 21:34:00,
2013-05-03 16:35:00,42.7,41.6,29.93,WNW,302,3.0,11.0,96,0.17,,---,2.09,VWS V14.01,2013-05-03 21:35:00,
2013-05-03 16:36:00,42.7,41.6,29.93,WNW,283,3.0,11.0,96,0.18,,---,2.10,VWS V14.01,2013-05-03 21:36:00,
2013-05-03 16:37:00,42.7,41.6,29.93,NNW,330,1.0,11.0,96,0.18,,---,2.10,VWS V14.01,2013-05-03 21:37:00,
2013-05-03 16:39:00,42.7,41.6,29.93,WNW,302,1.0,11.0,96,0.18,,---,2.10,VWS V14.01,2013-05-03 21:39:00,
2013-05-03 16:40:00,42.7,41.6,29.93,West,269,7.0,11.0,96,0.18,,---,2.10,VWS V14.01,2013-05-03 21:40:00,
2013-05-03 16:41:00,42.7,41.6,29.93,WNW,302,0.0,11.0,96,0.19,,---,2.11,VWS V14.01,2013-05-03 21:41:00,
2013-05-03 16:42:00,42.7,41.6,29.94,WNW,299,5.0,11.0,96,0.19,,---,2.11,VWS V14.01,2013-05-03 21:42:00,
2013-05-03 16:44:00,42.7,41.6,29.93,NW,305,2.0,11.0,96,0.19,,---,2.11,VWS V14.01,2013-05-03 21:44:00,
2013-05-03 16:45:00,42.7,41.6,29.93,WNW,284,3.0,11.0,96,0.19,,---,2.11,VWS V14.01,2013-05-03 21:45:00,
2013-05-03 16:46:00,42.7,41.6,29.93,WNW,295,3.0,5.0,96,0.12,,---,2.11,VWS V14.01,2013-05-03 21:46:00,
2013-05-03 16:47:00,42.7,41.4,29.93,WNW,287,1.0,10.0,95,0.12,,---,2.11,VWS V14.01,2013-05-03 21:47:00,
2013-05-03 16:49:00,42.7,41.6,29.92,NNW,343,0.0,10.0,96,0.12,,---,2.11,VWS V14.01,2013-05-03 21:49:00,
2013-05-03 16:50:00,42.7,41.6,29.92,West,269,1.0,10.0,96,0.12,,---,2.11,VWS V14.01,2013-05-03 21:50:00,
2013-05-03 16:51:00,42.7,41.6,29.91,West,269,0.0,10.0,96,0.12,,---,2.11,VWS V14.01,2013-05-03 21:51:00,
2013-05-03 16:53:00,42.7,41.6,29.91,West,269,1.0,10.0,96,0.12,,---,2.11,VWS V14.01,2013-05-03 21:53:00,
2013-05-03 16:54:00,42.7,41.6,29.92,West,277,2.0,10.0,96,0.12,,---,2.11,VWS V14.01,2013-05-03 21:54:00,
2013-05-03 16:56:00,42.7,41.6,29.92,NNW,339,0.0,10.0,96,0.12,,---,2.11,VWS V14.01,2013-05-03 21:56:00,
2013-05-03 16:58:00,42.7,41.6,29.91,WNW,299,1.0,10.0,96,0.12,,---,2.11,VWS V14.01,2013-05-03 21:58:00,
2013-05-03 16:59:00,42.8,41.7,29.91,WNW,292,0.0,10.0,96,0.12,,---,2.11,VWS V14.01,2013-05-03 21:59:00,
2013-05-03 17:00:00,42.8,41.7,29.92,West,278,1.0,10.0,96,0.12,,---,2.11,VWS V14.01,2013-05-03 22:00:00,
2013-05-03 17:01:00,42.9,41.8,29.92,WNW,288,1.0,1.0,96,0.11,,---,2.12,VWS V14.01,2013-05-03 22:01:00,
2013-05-03 17:03:00,42.9,41.8,29.92,WNW,295,1.0,8.0,96,0.11,,---,2.12,VWS V14.01,2013-05-03 22:03:00,
2013-05-03 17:04:00,42.9,41.8,29.92,WNW,292,3.0,8.0,96,0.11,,---,2.12,VWS V14.01,2013-05-03 22:04:00,
2013-05-03 17:05:00,42.9,41.8,29.92,WNW,285,6.0,8.0,96,0.11,,---,2.12,VWS V14.01,2013-05-03 22:05:00,
2013-05-03 17:06:00,42.9,41.8,29.92,West,280,3.0,10.0,96,0.11,,---,2.12,VWS V14.01,2013-05-03 22:06:00,
2013-05-03 17:07:00,42.9,41.8,29.93,WNW,296,6.0,10.0,96,0.11,,---,2.12,VWS V14.01,2013-05-03 22:07:00,
2013-05-03 17:08:00,43.0,41.9,29.93,WSW,254,4.0,10.0,96,0.11,,---,2.12,VWS V14.01,2013-05-03 22:08:00,
2013-05-03 17:09:00,43.0,41.9,29.93,West,276,6.0,10.0,96,0.11,,---,2.12,VWS V14.01,2013-05-03 22:09:00,
2013-05-03 17:10:00,43.0,41.9,29.93,NW,307,2.0,12.0,96,0.11,,---,2.12,VWS V14.01,2013-05-03 22:10:00,
2013-05-03 17:11:00,42.9,41.8,29.93,WNW,297,5.0,12.0,96,0.11,,---,2.12,VWS V14.01,2013-05-03 22:11:00,
2013-05-03 17:12:00,43.0,41.9,29.93,WNW,302,4.0,12.0,96,0.11,,---,2.12,VWS V14.01,2013-05-03 22:12:00,
2013-05-03 17:13:00,43.0,41.9,29.92,WNW,283,7.0,12.0,96,0.11,,---,2.12,VWS V14.01,2013-05-03 22:13:00,
2013-05-03 17:14:00,43.1,42.0,29.92,WNW,295,6.0,12.0,96,0.11,,---,2.12,VWS V14.01,2013-05-03 22:14:00,
2013-05-03 17:15:00,43.1,42.0,29.93,WNW,295,5.0,12.0,96,0.11,,---,2.12,VWS V14.01,2013-05-03 22:15:00,
2013-05-03 17:16:00,43.0,41.7,29.93,North,352,4.0,11.0,95,0.06,,---,2.12,VWS V14.01,2013-05-03 22:16:00,
2013-05-03 17:17:00,43.0,41.7,29.93,WNW,291,8.0,11.0,95,0.06,,---,2.12,VWS V14.01,2013-05-03 22:17:00,
2013-05-03 17:18:00,43.0,41.7,29.93,NW,310,8.0,12.0,95,0.06,,---,2.12,VWS V14.01,2013-05-03 22:18:00,
2013-05-03 17:19:00,42.9,41.6,29.93,WNW,285,1.0,12.0,95,0.06,,---,2.12,VWS V14.01,2013-05-03 22:19:00,
2013-05-03 17:20:00,43.0,41.7,29.93,WNW,285,1.0,12.0,95,0.06,,---,2.12,VWS V14.01,2013-05-03 22:20:00,
2013-05-03 17:21:00,43.0,41.7,29.93,West,278,7.0,12.0,95,0.06,,---,2.12,VWS V14.01,2013-05-03 22:21:00,
2013-05-03 17:22:00,43.0,41.7,29.93,WNW,295,6.0,12.0,95,0.06,,---,2.12,VWS V14.01,2013-05-03 22:22:00,
2013-05-03 17:23:00,43.0,41.7,29.93,NW,315,1.0,12.0,95,0.06,,---,2.12,VWS V14.01,2013-05-03 22:23:00,
2013-05-03 17:24:00,43.0,41.7,29.93,West,273,10.0,12.0,95,0.06,,---,2.12,VWS V14.01,2013-05-03 22:24:00,
2013-05-03 17:25:00,43.0,41.7,29.93,WNW,298,8.0,12.0,95,0.06,,---,2.12,VWS V14.01,2013-05-03 22:25:00,
2013-05-03 17:26:00,43.1,42.0,29.93,WNW,284,6.0,12.0,96,0.06,,---,2.12,VWS V14.01,2013-05-03 22:26:00,
2013-05-03 17:27:00,43.1,42.0,29.93,NW,315,2.0,12.0,96,0.06,,---,2.12,VWS V14.01,2013-05-03 22:27:00,
2013-05-03 17:28:00,43.1,41.8,29.93,WNW,297,4.0,12.0,95,0.06,,---,2.12,VWS V14.01,2013-05-03 22:28:00,
2013-05-03 17:29:00,43.1,42.0,29.93,WNW,290,6.0,12.0,96,0.06,,---,2.12,VWS V14.01,2013-05-03 22:29:00,
2013-05-03 17:30:00,43.1,41.8,29.93,WNW,289,6.0,12.0,95,0.06,,---,2.12,VWS V14.01,2013-05-03 22:30:00,
2013-05-03 17:32:00,43.1,42.0,29.93,WNW,288,2.0,8.0,96,0.03,,---,2.12,VWS V14.01,2013-05-03 22:32:00,
2013-05-03 17:33:00,43.1,42.0,29.93,WNW,287,5.0,9.0,96,0.03,,---,2.12,VWS V14.01,2013-05-03 22:33:00,
2013-05-03 17:35:00,43.1,42.0,29.93,WNW,290,5.0,9.0,96,0.03,,---,2.12,VWS V14.01,2013-05-03 22:35:00,
2013-05-03 17:37:00,43.0,41.7,29.93,NW,307,3.0,10.0,95,0.03,,---,2.12,VWS V14.01,2013-05-03 22:37:00,
2013-05-03 17:38:00,42.9,41.6,29.93,WNW,295,2.0,10.0,95,0.03,,---,2.12,VWS V14.01,2013-05-03 22:38:00,
2013-05-03 17:40:00,42.9,41.6,29.94,West,275,5.0,10.0,95,0.03,,---,2.12,VWS V14.01,2013-05-03 22:40:00,
2013-05-03 17:42:00,42.9,41.6,29.93,NW,304,6.0,10.0,95,0.03,,---,2.12,VWS V14.01,2013-05-03 22:42:00,
2013-05-03 17:43:00,42.9,41.6,29.93,WNW,288,4.0,10.0,95,0.03,,---,2.12,VWS V14.01,2013-05-03 22:43:00,
2013-05-03 17:45:00,42.9,41.6,29.93,WNW,285,6.0,10.0,95,0.03,,---,2.12,VWS V14.01,2013-05-03 22:45:00,
2013-05-03 17:47:00,42.9,41.6,29.93,WNW,291,5.0,7.0,95,0.01,,---,2.12,VWS V14.01,2013-05-03 22:47:00,
2013-05-03 17:49:00,42.8,41.5,29.94,WNW,288,6.0,11.0,95,0.01,,---,2.12,VWS V14.01,2013-05-03 22:49:00,
2013-05-03 17:50:00,42.8,41.5,29.93,NW,306,6.0,11.0,95,0.01,,---,2.12,VWS V14.01,2013-05-03 22:50:00,
2013-05-03 17:52:00,42.8,41.5,29.93,West,278,8.0,11.0,95,0.01,,---,2.12,VWS V14.01,2013-05-03 22:52:00,
2013-05-03 17:54:00,42.7,41.4,29.93,WNW,295,10.0,14.0,95,0.01,,---,2.12,VWS V14.01,2013-05-03 22:54:00,
2013-05-03 17:55:00,42.6,41.3,29.93,WNW,285,13.0,14.0,95,0.01,,---,2.12,VWS V14.01,2013-05-03 22:55:00,
2013-05-03 17:57:00,42.6,41.0,29.93,West,281,5.0,14.0,94,0.01,,---,2.12,VWS V14.01,2013-05-03 22:57:00,
2013-05-03 17:58:00,42.6,41.0,29.93,WNW,285,12.0,14.0,94,0.01,,---,2.12,VWS V14.01,2013-05-03 22:58:00,
2013-05-03 17:59:00,42.6,41.3,29.93,WNW,283,9.0,14.0,95,0.01,,---,2.12,VWS V14.01,2013-05-03 22:59:00,
2013-05-03 18:00:00,42.6,41.3,29.93,WNW,292,4.0,14.0,95,0.01,,---,2.12,VWS V14.01,2013-05-03 23:00:00,
2013-05-03 18:02:00,42.7,41.4,29.93,WNW,282,6.0,9.0,95,0.00,,---,2.12,VWS V14.01,2013-05-03 23:02:00,
2013-05-03 18:03:00,42.7,41.4,29.93,West,280,4.0,9.0,95,0.00,,---,2.12,VWS V14.01,2013-05-03 23:03:00,
2013-05-03 18:04:00,42.8,41.5,29.93,WNW,296,3.0,9.0,95,0.00,,---,2.12,VWS V14.01,2013-05-03 23:04:00,
2013-05-03 18:05:00,42.8,41.5,29.93,North,357,1.0,11.0,95,0.00,,---,2.12,VWS V14.01,2013-05-03 23:05:00,
2013-05-03 18:07:00,42.9,41.6,29.93,NW,321,0.0,11.0,95,0.00,,---,2.12,VWS V14.01,2013-05-03 23:07:00,
2013-05-03 18:08:00,42.9,41.6,29.93,NW,321,0.0,11.0,95,0.00,,---,2.12,VWS V14.01,2013-05-03 23:08:00,
2013-05-03 18:09:00,42.9,41.6,29.93,WNW,297,2.0,11.0,95,0.00,,---,2.12,VWS V14.01,2013-05-03 23:09:00,
2013-05-03 18:10:00,43.0,41.7,29.93,WNW,292,3.0,11.0,95,0.00,,---,2.12,VWS V14.01,2013-05-03 23:10:00,
2013-05-03 18:11:00,43.0,41.7,29.93,West,279,7.0,11.0,95,0.00,,---,2.12,VWS V14.01,2013-05-03 23:11:00,
2013-05-03 18:13:00,42.9,41.6,29.93,West,273,4.0,11.0,95,0.00,,---,2.12,VWS V14.01,2013-05-03 23:13:00,
2013-05-03 18:14:00,42.9,41.6,29.93,West,268,6.0,11.0,95,0.00,,---,2.12,VWS V14.01,2013-05-03 23:14:00,
2013-05-03 18:15:00,42.9,41.6,29.94,WNW,282,5.0,11.0,95,0.00,,---,2.12,VWS V14.01,2013-05-03 23:15:00,
2013-05-03 18:16:00,42.9,41.6,29.94,WSW,251,1.0,4.0,95,0.00,,---,2.12,VWS V14.01,2013-05-03 23:16:00,
2013-05-03 18:18:00,42.9,41.6,29.94,North,352,2.0,8.0,95,0.00,,---,2.12,VWS V14.01,2013-05-03 23:18:00,
2013-05-03 18:19:00,43.0,41.7,29.94,West,278,8.0,8.0,95,0.00,,---,2.12,VWS V14.01,2013-05-03 23:19:00,
2013-05-03 18:20:00,42.9,41.3,29.94,WNW,290,8.0,11.0,94,0.00,,---,2.12,VWS V14.01,2013-05-03 23:20:00,
2013-05-03 18:21:00,42.9,41.3,29.94,NW,307,8.0,11.0,94,0.00,,---,2.12,VWS V14.01,2013-05-03 23:21:00,
2013-05-03 18:23:00,42.8,41.2,29.94,WNW,297,6.0,11.0,94,0.00,,---,2.12,VWS V14.01,2013-05-03 23:23:00,
2013-05-03 18:24:00,42.8,41.2,29.94,West,278,7.0,12.0,94,0.00,,---,2.12,VWS V14.01,2013-05-03 23:24:00,
2013-05-03 18:25:00,42.7,41.1,29.94,NW,325,3.0,12.0,94,0.00,,---,2.12,VWS V14.01,2013-05-03 23:25:00,
2013-05-03 18:26:00,42.7,41.1,29.94,WNW,297,10.0,12.0,94,0.00,,---,2.12,VWS V14.01,2013-05-03 23:26:00,
2013-05-03 18:28:00,42.6,40.7,29.94,West,276,7.0,13.0,93,0.00,,---,2.12,VWS V14.01,2013-05-03 23:28:00,
2013-05-03 18:29:00,42.7,40.8,29.94,WNW,291,4.0,13.0,93,0.00,,---,2.12,VWS V14.01,2013-05-03 23:29:00,
2013-05-03 18:31:00,42.6,40.7,29.94,SW,221,8.0,13.0,93,0.00,,---,2.12,VWS V14.01,2013-05-03 23:31:00,
2013-05-03 18:33:00,42.6,40.7,29.94,WNW,296,5.0,13.0,93,0.00,,---,2.12,VWS V14.01,2013-05-03 23:33:00,
2013-05-03 18:34:00,42.6,40.7,29.95,West,273,4.0,13.0,93,0.00,,---,2.12,VWS V14.01,2013-05-03 23:34:00,
2013-05-03 18:36:00,42.6,40.7,29.95,WNW,300,1.0,13.0,93,0.00,,---,2.12,VWS V14.01,2013-05-03 23:36:00,
2013-05-03 18:37:00,42.6,40.7,29.95,WNW,302,3.0,13.0,93,0.00,,---,2.12,VWS V14.01,2013-05-03 23:37:00,
2013-05-03 18:38:00,42.6,40.7,29.95,WNW,289,5.0,13.0,93,0.00,,---,2.12,VWS V14.01,2013-05-03 23:38:00,
2013-05-03 18:39:00,42.6,40.7,29.95,WNW,287,2.0,13.0,93,0.00,,---,2.12,VWS V14.01,2013-05-03 23:39:00,
2013-05-03 18:41:00,42.5,40.6,29.95,WNW,302,6.0,13.0,93,0.00,,---,2.12,VWS V14.01,2013-05-03 23:41:00,
2013-05-03 18:42:00,42.5,40.6,29.95,WNW,300,6.0,13.0,93,0.00,,---,2.12,VWS V14.01,2013-05-03 23:42:00,
2013-05-03 18:44:00,42.5,40.6,29.95,WNW,294,6.0,13.0,93,0.00,,---,2.12,VWS V14.01,2013-05-03 23:44:00,
2013-05-03 18:46:00,42.4,40.5,29.95,NW,313,4.0,7.0,93,0.00,,---,2.12,VWS V14.01,2013-05-03 23:46:00,
2013-05-03 18:47:00,42.4,40.5,29.95,WNW,290,8.0,8.0,93,0.00,,---,2.12,VWS V14.01,2013-05-03 23:47:00,
2013-05-03 18:49:00,42.3,40.4,29.95,WNW,292,7.0,11.0,93,0.00,,---,2.12,VWS V14.01,2013-05-03 23:49:00,
2013-05-03 18:50:00,42.3,40.4,29.95,WNW,297,4.0,11.0,93,0.00,,---,2.12,VWS V14.01,2013-05-03 23:50:00,
2013-05-03 18:51:00,42.3,40.4,29.95,WNW,295,4.0,11.0,93,0.00,,---,2.12,VWS V14.01,2013-05-03 23:51:00,
2013-05-03 18:52:00,42.3,40.4,29.95,West,278,3.0,11.0,93,0.00,,---,2.12,VWS V14.01,2013-05-03 23:52:00,
2013-05-03 18:54:00,42.3,40.4,29.96,WNW,294,8.0,11.0,93,0.00,,---,2.12,VWS V14.01,2013-05-03 23:54:00,
2013-05-03 18:55:00,42.2,40.3,29.96,West,281,3.0,11.0,93,0.00,,---,2.12,VWS V14.01,2013-05-03 23:55:00,
2013-05-03 18:57:00,42.3,40.4,29.96,WNW,292,9.0,11.0,93,0.00,,---,2.12,VWS V14.01,2013-05-03 23:57:00,
2013-05-03 18:59:00,42.2,40.3,29.96,NW,311,8.0,14.0,93,0.00,,---,2.12,VWS V14.01,2013-05-03 23:59:00,
2013-05-03 19:00:00,42.2,40.3,29.96,NW,319,1.0,14.0,93,0.00,,---,2.12,VWS V14.01,2013-05-04 00:00:00,
2013-05-03 19:02:00,42.2,40.3,29.96,WNW,287,1.0,9.0,93,0.00,,---,2.12,VWS V14.01,2013-05-04 00:02:00,
2013-05-03 19:04:00,42.2,40.6,29.96,WNW,283,7.0,10.0,94,0.00,,---,2.12,VWS V14.01,2013-05-04 00:04:00,
2013-05-03 19:05:00,42.2,40.3,29.96,WNW,296,10.0,10.0,93,0.00,,---,2.12,VWS V14.01,2013-05-04 00:05:00,
2013-05-03 19:07:00,42.2,40.3,29.96,WNW,289,3.0,10.0,93,0.00,,---,2.12,VWS V14.01,2013-05-04 00:07:00,
2013-05-03 19:09:00,42.1,40.2,29.96,WNW,289,8.0,11.0,93,0.00,,---,2.12,VWS V14.01,2013-05-04 00:09:00,
2013-05-03 19:10:00,42.1,40.2,29.96,West,278,6.0,11.0,93,0.00,,---,2.12,VWS V14.01,2013-05-04 00:10:00,
2013-05-03 19:12:00,42.1,40.2,29.97,WNW,292,6.0,12.0,93,0.00,,---,2.12,VWS V14.01,2013-05-04 00:12:00,
2013-05-03 19:13:00,42.1,40.2,29.97,WNW,287,6.0,12.0,93,0.00,,---,2.12,VWS V14.01,2013-05-04 00:13:00,
2013-05-03 19:14:00,42.1,40.2,29.97,WNW,296,10.0,12.0,93,0.00,,---,2.12,VWS V14.01,2013-05-04 00:14:00,
2013-05-03 19:15:00,42.0,40.1,29.97,WNW,283,14.0,14.0,93,0.00,,---,2.12,VWS V14.01,2013-05-04 00:15:00,
2013-05-03 19:17:00,42.0,40.1,29.97,WNW,290,6.0,12.0,93,0.00,,---,2.12,VWS V14.01,2013-05-04 00:17:00,
2013-05-03 19:18:00,42.0,40.1,29.97,WNW,285,6.0,12.0,93,0.00,,---,2.12,VWS V14.01,2013-05-04 00:18:00,
2013-05-03 19:19:00,42.0,40.1,29.97,NW,306,6.0,12.0,93,0.00,,---,2.12,VWS V14.01,2013-05-04 00:19:00,
2013-05-03 19:20:00,42.0,40.1,29.97,WNW,292,4.0,12.0,93,0.00,,---,2.12,VWS V14.01,2013-05-04 00:20:00,
2013-05-03 19:22:00,41.9,40.0,29.97,WNW,285,2.0,15.0,93,0.00,,---,2.12,VWS V14.01,2013-05-04 00:22:00,
2013-05-03 19:24:00,41.9,40.0,29.97,West,262,9.0,15.0,93,0.00,,---,2.12,VWS V14.01,2013-05-04 00:24:00,
2013-05-03 19:25:00,41.9,40.0,29.97,WNW,285,2.0,15.0,93,0.00,,---,2.12,VWS V14.01,2013-05-04 00:25:00,
2013-05-03 19:27:00,41.9,40.0,29.97,NNW,341,12.0,15.0,93,0.00,,---,2.12,VWS V14.01,2013-05-04 00:27:00,
2013-05-03 19:29:00,41.9,39.8,29.97,West,280,5.0,15.0,92,0.00,,---,2.12,VWS V14.01,2013-05-04 00:29:00,
2013-05-03 19:30:00,41.9,39.8,29.97,WNW,299,8.0,15.0,92,0.00,,---,2.12,VWS V14.01,2013-05-04 00:30:00,
2013-05-03 19:33:00,41.9,40.0,29.97,WNW,285,7.0,11.0,93,0.00,,---,2.12,VWS V14.01,2013-05-04 00:33:00,
2013-05-03 19:34:00,41.9,40.0,29.97,WNW,287,8.0,11.0,93,0.00,,---,2.12,VWS V14.01,2013-05-04 00:34:00,
2013-05-03 19:35:00,41.9,40.0,29.97,West,276,6.0,11.0,93,0.00,,---,2.12,VWS V14.01,2013-05-04 00:35:00,
2013-05-03 19:36:00,41.9,40.0,29.97,WNW,295,6.0,11.0,93,0.00,,---,2.12,VWS V14.01,2013-05-04 00:36:00,
2013-05-03 19:38:00,41.9,39.8,29.97,NW,309,4.0,11.0,92,0.00,,---,2.12,VWS V14.01,2013-05-04 00:38:00,
2013-05-03 19:39:00,41.9,40.0,29.97,West,273,4.0,11.0,93,0.00,,---,2.12,VWS V14.01,2013-05-04 00:39:00,
2013-05-03 19:40:00,41.9,40.0,29.97,WNW,301,5.0,11.0,93,0.00,,---,2.12,VWS V14.01,2013-05-04 00:40:00,
2013-05-03 19:41:00,41.9,40.0,29.96,NW,319,6.0,11.0,93,0.00,,---,2.12,VWS V14.01,2013-05-04 00:41:00,
2013-05-03 19:43:00,41.9,39.8,29.96,NW,305,6.0,11.0,92,0.00,,---,2.12,VWS V14.01,2013-05-04 00:43:00,
2013-05-03 19:44:00,41.9,39.8,29.96,WNW,289,5.0,11.0,92,0.00,,---,2.12,VWS V14.01,2013-05-04 00:44:00,
2013-05-03 19:45:00,41.9,39.8,29.97,WNW,294,7.0,11.0,92,0.00,,---,2.12,VWS V14.01,2013-05-04 00:45:00,
2013-05-03 19:46:00,41.9,39.8,29.97,WNW,294,5.0,10.0,92,0.00,,---,2.12,VWS V14.01,2013-05-04 00:46:00,
2013-05-03 19:48:00,41.9,39.8,29.97,WNW,285,6.0,10.0,92,0.00,,---,2.12,VWS V14.01,2013-05-04 00:48:00,
2013-05-03 19:49:00,41.9,39.8,29.97,West,276,11.0,11.0,92,0.00,,---,2.12,VWS V14.01,2013-05-04 00:49:00,
2013-05-03 19:50:00,41.8,39.7,29.97,WNW,288,11.0,11.0,92,0.00,,---,2.12,VWS V14.01,2013-05-04 00:50:00,
2013-05-03 19:51:00,41.9,39.8,29.97,WNW,285,6.0,11.0,92,0.00,,---,2.12,VWS V14.01,2013-05-04 00:51:00,
2013-05-03 19:53:00,41.9,39.8,29.97,WNW,295,4.0,11.0,92,0.00,,---,2.12,VWS V14.01,2013-05-04 00:53:00,
2013-05-03 19:54:00,41.9,40.0,29.97,WNW,299,4.0,11.0,93,0.00,,---,2.12,VWS V14.01,2013-05-04 00:54:00,
2013-05-03 19:55:00,41.9,40.0,29.97,NW,325,8.0,11.0,93,0.00,,---,2.12,VWS V14.01,2013-05-04 00:55:00,
2013-05-03 19:56:00,41.9,39.8,29.97,West,278,7.0,11.0,92,0.00,,---,2.12,VWS V14.01,2013-05-04 00:56:00,
2013-05-03 19:57:00,41.9,39.8,29.97,West,274,8.0,11.0,92,0.00,,---,2.12,VWS V14.01,2013-05-04 00:57:00,
2013-05-03 19:58:00,41.8,39.7,29.97,WNW,302,7.0,11.0,92,0.00,,---,2.12,VWS V14.01,2013-05-04 00:58:00,
2013-05-03 20:00:00,41.9,39.8,29.97,WNW,295,5.0,11.0,92,0.00,,---,2.12,VWS V14.01,2013-05-04 01:00:00,
2013-05-03 20:01:00,41.9,39.8,29.97,WNW,301,5.0,8.0,92,0.00,,---,2.12,VWS V14.01,2013-05-04 01:01:00,
2013-05-03 20:02:00,41.9,39.8,29.97,WNW,297,6.0,8.0,92,0.00,,---,2.12,VWS V14.01,2013-05-04 01:02:00,
2013-05-03 20:03:00,41.9,39.8,29.97,West,278,2.0,9.0,92,0.00,,---,2.12,VWS V14.01,2013-05-04 01:03:00,
2013-05-03 20:05:00,41.9,39.8,29.97,WNW,285,4.0,9.0,92,0.00,,---,2.12,VWS V14.01,2013-05-04 01:05:00,
2013-05-03 20:07:00,41.9,39.8,29.97,WNW,294,5.0,9.0,92,0.00,,---,2.12,VWS V14.01,2013-05-04 01:07:00,
2013-05-03 20:08:00,41.9,39.8,29.97,WNW,287,4.0,9.0,92,0.00,,---,2.12,VWS V14.01,2013-05-04 01:08:00,
2013-05-03 20:10:00,41.9,39.8,29.97,WNW,290,4.0,9.0,92,0.00,,---,2.12,VWS V14.01,2013-05-04 01:10:00,
2013-05-03 20:11:00,41.9,39.8,29.97,WNW,292,4.0,9.0,92,0.00,,---,2.12,VWS V14.01,2013-05-04 01:11:00,
2013-05-03 20:12:00,41.9,39.8,29.97,WNW,283,7.0,9.0,92,0.00,,---,2.12,VWS V14.01,2013-05-04 01:12:00,
2013-05-03 20:13:00,41.9,39.8,29.97,West,279,5.0,9.0,92,0.00,,---,2.12,VWS V14.01,2013-05-04 01:13:00,
2013-05-03 20:15:00,41.9,39.8,29.97,West,275,5.0,9.0,92,0.00,,---,2.12,VWS V14.01,2013-05-04 01:15:00,
2013-05-03 20:16:00,41.9,39.8,29.97,WNW,288,2.0,5.0,92,0.00,,---,2.12,VWS V14.01,2013-05-04 01:16:00,
2013-05-03 20:17:00,41.9,39.8,29.97,WNW,288,3.0,5.0,92,0.00,,---,2.12,VWS V14.01,2013-05-04 01:17:00,
2013-05-03 20:18:00,41.9,39.8,29.97,WNW,290,5.0,6.0,92,0.00,,---,2.12,VWS V14.01,2013-05-04 01:18:00,
2013-05-03 20:20:00,41.9,39.8,29.97,WNW,290,2.0,6.0,92,0.00,,---,2.12,VWS V14.01,2013-05-04 01:20:00,
2013-05-03 20:21:00,41.9,39.8,29.97,WNW,292,6.0,9.0,92,0.00,,---,2.12,VWS V14.01,2013-05-04 01:21:00,
2013-05-03 20:22:00,41.9,39.8,29.98,West,266,8.0,9.0,92,0.00,,---,2.12,VWS V14.01,2013-05-04 01:22:00,
2013-05-03 20:23:00,41.9,39.8,29.98,WNW,287,4.0,9.0,92,0.00,,---,2.12,VWS V14.01,2013-05-04 01:23:00,
2013-05-03 20:25:00,41.9,39.8,29.98,WNW,285,3.0,9.0,92,0.00,,---,2.12,VWS V14.01,2013-05-04 01:25:00,
2013-05-03 20:26:00,42.0,39.8,29.98,West,279,3.0,9.0,92,0.00,,---,2.12,VWS V14.01,2013-05-04 01:26:00,
2013-05-03 20:27:00,41.9,39.8,29.98,WNW,288,2.0,9.0,92,0.00,,---,2.12,VWS V14.01,2013-05-04 01:27:00,
2013-05-03 20:29:00,41.9,39.5,29.98,WNW,295,4.0,9.0,91,0.00,,---,2.12,VWS V14.01,2013-05-04 01:29:00,
2013-05-03 20:30:00,41.9,39.5,29.98,WNW,291,3.0,9.0,91,0.00,,---,2.12,VWS V14.01,2013-05-04 01:30:00,
2013-05-03 20:32:00,41.9,39.5,29.98,WNW,295,4.0,6.0,91,0.00,,---,2.12,VWS V14.01,2013-05-04 01:32:00,
2013-05-03 20:34:00,41.9,39.8,29.98,WNW,292,4.0,6.0,92,0.00,,---,2.12,VWS V14.01,2013-05-04 01:34:00,
2013-05-03 20:35:00,41.9,39.5,29.98,WNW,299,5.0,7.0,91,0.00,,---,2.12,VWS V14.01,2013-05-04 01:35:00,
2013-05-03 20:37:00,41.9,39.5,29.98,WNW,294,3.0,7.0,91,0.00,,---,2.12,VWS V14.01,2013-05-04 01:37:00,
2013-05-03 20:38:00,41.9,39.5,29.98,WNW,295,5.0,7.0,91,0.00,,---,2.12,VWS V14.01,2013-05-04 01:38:00,
2013-05-03 20:39:00,41.9,39.5,29.98,West,278,5.0,7.0,91,0.00,,---,2.12,VWS V14.01,2013-05-04 01:39:00,
2013-05-03 20:40:00,41.9,39.8,29.98,WNW,290,4.0,7.0,92,0.00,,---,2.12,VWS V14.01,2013-05-04 01:40:00,
2013-05-03 20:42:00,41.9,39.8,29.98,WNW,292,5.0,7.0,92,0.00,,---,2.12,VWS V14.01,2013-05-04 01:42:00,
2013-05-03 20:45:00,41.9,39.8,29.98,WNW,285,5.0,7.0,92,0.00,,---,2.12,VWS V14.01,2013-05-04 01:45:00,
2013-05-03 20:47:00,41.9,39.5,29.98,West,275,5.0,9.0,91,0.00,,---,2.12,VWS V14.01,2013-05-04 01:47:00,
2013-05-03 20:50:00,41.9,39.5,29.98,WNW,289,2.0,9.0,91,0.00,,---,2.12,VWS V14.01,2013-05-04 01:50:00,
2013-05-03 20:51:00,41.9,39.8,29.98,West,276,1.0,9.0,92,0.00,,---,2.12,VWS V14.01,2013-05-04 01:51:00,
2013-05-03 20:52:00,41.9,39.8,29.98,WNW,289,5.0,9.0,92,0.00,,---,2.12,VWS V14.01,2013-05-04 01:52:00,
2013-05-03 20:53:00,41.9,39.8,29.98,WNW,283,8.0,9.0,92,0.00,,---,2.12,VWS V14.01,2013-05-04 01:53:00,
2013-05-03 20:55:00,41.9,39.5,29.98,WNW,288,2.0,9.0,91,0.00,,---,2.12,VWS V14.01,2013-05-04 01:55:00,
2013-05-03 20:56:00,41.9,39.5,29.98,WNW,290,4.0,9.0,91,0.00,,---,2.12,VWS V14.01,2013-05-04 01:56:00,
2013-05-03 20:58:00,41.9,39.8,29.98,WNW,302,6.0,9.0,92,0.00,,---,2.12,VWS V14.01,2013-05-04 01:58:00,
2013-05-03 21:00:00,41.9,39.5,29.99,WNW,299,6.0,9.0,91,0.00,,---,2.12,VWS V14.01,2013-05-04 02:00:00,
2013-05-03 21:01:00,41.9,39.5,29.99,West,271,7.0,8.0,91,0.00,,---,2.12,VWS V14.01,2013-05-04 02:01:00,
2013-05-03 21:03:00,41.9,39.5,29.99,WNW,284,4.0,9.0,91,0.00,,---,2.12,VWS V14.01,2013-05-04 02:03:00,
2013-05-03 21:05:00,41.8,39.1,29.99,WNW,286,4.0,9.0,90,0.00,,---,2.12,VWS V14.01,2013-05-04 02:05:00,
2013-05-03 21:06:00,41.8,39.1,29.99,WNW,287,4.0,9.0,90,0.00,,---,2.12,VWS V14.01,2013-05-04 02:06:00,
2013-05-03 21:08:00,41.7,39.0,29.99,WNW,298,4.0,9.0,90,0.00,,---,2.12,VWS V14.01,2013-05-04 02:08:00,
2013-05-03 21:10:00,41.7,39.0,29.99,WNW,289,1.0,9.0,90,0.00,,---,2.12,VWS V14.01,2013-05-04 02:10:00,
2013-05-03 21:11:00,41.7,39.0,29.99,West,273,5.0,9.0,90,0.00,,---,2.12,VWS V14.01,2013-05-04 02:11:00,
2013-05-03 21:13:00,41.6,38.9,29.99,WNW,295,0.0,9.0,90,0.00,,---,2.12,VWS V14.01,2013-05-04 02:13:00,
2013-05-03 21:15:00,41.5,39.1,29.99,WNW,285,8.0,9.0,91,0.00,,---,2.12,VWS V14.01,2013-05-04 02:15:00,
2013-05-03 21:16:00,41.5,39.1,29.99,WNW,285,2.0,8.0,91,0.00,,---,2.12,VWS V14.01,2013-05-04 02:16:00,
2013-05-03 21:18:00,41.4,38.7,29.99,West,280,4.0,8.0,90,0.00,,---,2.12,VWS V14.01,2013-05-04 02:18:00,
2013-05-03 21:20:00,41.4,38.7,29.99,WNW,287,4.0,8.0,90,0.00,,---,2.12,VWS V14.01,2013-05-04 02:20:00,
2013-05-03 21:21:00,41.4,38.7,29.99,WNW,284,5.0,8.0,90,0.00,,---,2.12,VWS V14.01,2013-05-04 02:21:00,
2013-05-03 21:23:00,41.3,38.6,29.99,WNW,303,6.0,8.0,90,0.00,,---,2.12,VWS V14.01,2013-05-04 02:23:00,
2013-05-03 21:26:00,41.3,38.6,30.00,WNW,287,1.0,8.0,90,0.00,,---,2.12,VWS V14.01,2013-05-04 02:26:00,
2013-05-03 21:28:00,41.3,38.6,30.00,WNW,290,4.0,8.0,90,0.00,,---,2.12,VWS V14.01,2013-05-04 02:28:00,
2013-05-03 21:29:00,41.3,38.6,30.00,West,276,1.0,8.0,90,0.00,,---,2.12,VWS V14.01,2013-05-04 02:29:00,
2013-05-03 21:31:00,41.3,38.6,30.00,WNW,290,0.0,2.0,90,0.00,,---,2.12,VWS V14.01,2013-05-04 02:31:00,
2013-05-03 21:33:00,41.2,38.5,30.00,WNW,287,3.0,3.0,90,0.00,,---,2.12,VWS V14.01,2013-05-04 02:33:00,
2013-05-03 21:34:00,41.2,38.5,30.00,WNW,285,3.0,4.0,90,0.00,,---,2.12,VWS V14.01,2013-05-04 02:34:00,
2013-05-03 21:36:00,41.1,38.4,30.00,WNW,282,2.0,5.0,90,0.00,,---,2.12,VWS V14.01,2013-05-04 02:36:00,
2013-05-03 21:38:00,41.1,38.4,30.00,NW,312,4.0,5.0,90,0.00,,---,2.12,VWS V14.01,2013-05-04 02:38:00,
2013-05-03 21:39:00,41.1,38.4,30.00,WNW,291,1.0,5.0,90,0.00,,---,2.12,VWS V14.01,2013-05-04 02:39:00,
2013-05-03 21:41:00,41.0,38.3,29.99,West,280,2.0,5.0,90,0.00,,---,2.12,VWS V14.01,2013-05-04 02:41:00,
2013-05-03 21:43:00,40.9,38.5,29.99,West,280,3.0,5.0,91,0.00,,---,2.12,VWS V14.01,2013-05-04 02:43:00,
2013-05-03 21:44:00,40.9,38.5,29.99,WNW,289,4.0,5.0,91,0.00,,---,2.12,VWS V14.01,2013-05-04 02:44:00,
2013-05-03 21:46:00,40.8,38.4,29.99,WNW,292,2.0,5.0,91,0.00,,---,2.12,VWS V14.01,2013-05-04 02:46:00,
2013-05-03 21:48:00,40.8,38.4,29.99,West,275,6.0,6.0,91,0.00,,---,2.12,VWS V14.01,2013-05-04 02:48:00,
2013-05-03 21:49:00,40.7,38.3,29.99,WNW,285,3.0,6.0,91,0.00,,---,2.12,VWS V14.01,2013-05-04 02:49:00,
2013-05-03 21:51:00,40.7,38.3,29.99,WNW,285,3.0,6.0,91,0.00,,---,2.12,VWS V14.01,2013-05-04 02:51:00,
2013-05-03 21:52:00,40.7,38.3,30.00,West,263,3.0,6.0,91,0.00,,---,2.12,VWS V14.01,2013-05-04 02:52:00,
2013-05-03 21:53:00,40.7,38.3,30.00,WNW,288,6.0,7.0,91,0.00,,---,2.12,VWS V14.01,2013-05-04 02:53:00,
2013-05-03 21:54:00,40.7,38.3,30.00,WNW,282,7.0,7.0,91,0.00,,---,2.12,VWS V14.01,2013-05-04 02:54:00,
2013-05-03 21:56:00,40.8,38.4,30.00,WNW,283,3.0,7.0,91,0.00,,---,2.12,VWS V14.01,2013-05-04 02:56:00,
2013-05-03 21:57:00,40.8,38.4,30.00,WNW,283,1.0,7.0,91,0.00,,---,2.12,VWS V14.01,2013-05-04 02:57:00,
2013-05-03 21:59:00,40.7,38.3,29.99,WNW,290,3.0,7.0,91,0.00,,---,2.12,VWS V14.01,2013-05-04 02:59:00,
2013-05-03 22:01:00,40.7,38.0,30.00,West,281,0.0,1.0,90,0.00,,---,2.12,VWS V14.01,2013-05-04 03:01:00,
2013-05-03 22:02:00,40.7,38.3,29.99,West,281,0.0,1.0,91,0.00,,---,2.12,VWS V14.01,2013-05-04 03:02:00,
2013-05-03 22:04:00,40.6,38.2,29.99,WNW,289,0.0,3.0,91,0.00,,---,2.12,VWS V14.01,2013-05-04 03:04:00,
2013-05-03 22:05:00,40.6,38.2,29.99,WNW,288,0.0,3.0,91,0.00,,---,2.12,VWS V14.01,2013-05-04 03:05:00,
2013-05-03 22:06:00,40.5,38.1,29.99,WNW,284,0.0,6.0,91,0.00,,---,2.12,VWS V14.01,2013-05-04 03:06:00,
2013-05-03 22:07:00,40.6,38.2,29.99,WNW,283,0.0,6.0,91,0.00,,---,2.12,VWS V14.01,2013-05-04 03:07:00,
2013-05-03 22:09:00,40.6,38.2,29.99,West,259,1.0,6.0,91,0.00,,---,2.12,VWS V14.01,2013-05-04 03:09:00,
2013-05-03 22:10:00,40.6,38.2,29.99,West,259,0.0,6.0,91,0.00,,---,2.12,VWS V14.01,2013-05-04 03:10:00,
2013-05-03 22:11:00,40.5,38.1,29.99,West,281,0.0,6.0,91,0.00,,---,2.12,VWS V14.01,2013-05-04 03:11:00,
2013-05-03 22:12:00,40.5,38.1,29.99,West,281,0.0,6.0,91,0.00,,---,2.12,VWS V14.01,2013-05-04 03:12:00,
2013-05-03 22:14:00,40.4,38.0,29.99,West,270,0.0,6.0,91,0.00,,---,2.12,VWS V14.01,2013-05-04 03:14:00,
2013-05-03 22:15:00,40.4,38.0,29.99,West,276,3.0,6.0,91,0.00,,---,2.12,VWS V14.01,2013-05-04 03:15:00,
2013-05-03 22:16:00,40.4,38.0,29.99,WNW,292,0.0,3.0,91,0.00,,---,2.12,VWS V14.01,2013-05-04 03:16:00,
2013-05-03 22:17:00,40.3,37.9,29.99,WNW,292,0.0,3.0,91,0.00,,---,2.12,VWS V14.01,2013-05-04 03:17:00,
2013-05-03 22:19:00,40.2,37.8,29.99,WNW,285,3.0,4.0,91,0.00,,---,2.12,VWS V14.01,2013-05-04 03:19:00,
2013-05-03 22:20:00,40.2,37.8,29.99,WNW,287,2.0,4.0,91,0.00,,---,2.12,VWS V14.01,2013-05-04 03:20:00,
2013-05-03 22:22:00,40.2,37.8,29.99,West,280,1.0,4.0,91,0.00,,---,2.12,VWS V14.01,2013-05-04 03:22:00,
2013-05-03 22:24:00,40.1,37.7,29.99,West,280,3.0,4.0,91,0.00,,---,2.12,VWS V14.01,2013-05-04 03:24:00,
2013-05-03 22:25:00,40.1,37.7,29.99,West,280,2.0,4.0,91,0.00,,---,2.12,VWS V14.01,2013-05-04 03:25:00,
2013-05-03 22:27:00,40.1,37.7,29.99,West,278,2.0,4.0,91,0.00,,---,2.12,VWS V14.01,2013-05-04 03:27:00,
2013-05-03 22:30:00,40.0,37.6,29.99,WNW,287,1.0,4.0,91,0.00,,---,2.12,VWS V14.01,2013-05-04 03:30:00,
2013-05-03 22:32:00,40.0,37.6,29.99,West,276,2.0,2.0,91,0.00,,---,2.12,VWS V14.01,2013-05-04 03:32:00,
2013-05-03 22:35:00,39.9,37.5,29.99,WNW,282,0.0,3.0,91,0.00,,---,2.12,VWS V14.01,2013-05-04 03:35:00,
2013-05-03 22:37:00,39.9,37.5,29.99,West,280,1.0,3.0,91,0.00,,---,2.12,VWS V14.01,2013-05-04 03:37:00,
2013-05-03 22:40:00,39.8,37.4,29.99,WNW,285,0.0,3.0,91,0.00,,---,2.12,VWS V14.01,2013-05-04 03:40:00,
2013-05-03 22:42:00,39.7,37.3,29.99,WNW,285,0.0,3.0,91,0.00,,---,2.12,VWS V14.01,2013-05-04 03:42:00,
2013-05-03 22:45:00,39.7,37.3,29.99,WNW,286,0.0,3.0,91,0.00,,---,2.12,VWS V14.01,2013-05-04 03:45:00,
2013-05-03 22:46:00,39.6,37.2,29.98,WNW,285,0.0,0.0,91,0.00,,---,2.12,VWS V14.01,2013-05-04 03:46:00,
2013-05-03 22:47:00,39.6,37.2,29.98,WNW,285,0.0,0.0,91,0.00,,---,2.12,VWS V14.01,2013-05-04 03:47:00,
2013-05-03 22:50:00,39.5,37.4,29.99,WNW,286,0.0,0.0,92,0.00,,---,2.12,VWS V14.01,2013-05-04 03:50:00,
2013-05-03 22:51:00,39.5,37.4,29.99,WNW,285,0.0,0.0,92,0.00,,---,2.12,VWS V14.01,2013-05-04 03:51:00,
2013-05-03 22:52:00,39.4,37.3,29.99,WNW,286,0.0,0.0,92,0.00,,---,2.12,VWS V14.01,2013-05-04 03:52:00,
2013-05-03 22:55:00,39.2,37.1,29.99,WNW,285,0.0,0.0,92,0.00,,---,2.12,VWS V14.01,2013-05-04 03:55:00,
2013-05-03 22:56:00,39.2,37.1,29.99,WNW,285,0.0,0.0,92,0.00,,---,2.12,VWS V14.01,2013-05-04 03:56:00,
2013-05-03 22:57:00,39.0,36.9,29.99,WNW,285,0.0,0.0,92,0.00,,---,2.12,VWS V14.01,2013-05-04 03:57:00,
2013-05-03 22:58:00,39.0,36.9,29.99,WNW,285,0.0,0.0,92,0.00,,---,2.12,VWS V14.01,2013-05-04 03:58:00,
2013-05-03 23:00:00,38.8,36.7,29.98,WNW,285,0.0,0.0,92,0.00,,---,2.12,VWS V14.01,2013-05-04 04:00:00,
2013-05-03 23:01:00,38.8,36.7,29.98,WNW,285,0.0,0.0,92,0.00,,---,2.12,VWS V14.01,2013-05-04 04:01:00,
2013-05-03 23:06:00,38.4,36.3,29.98,WNW,285,0.0,0.0,92,0.00,,---,2.12,VWS V14.01,2013-05-04 04:06:00,
2013-05-03 23:11:00,38.1,36.3,29.98,WNW,285,0.0,0.0,93,0.00,,---,2.12,VWS V14.01,2013-05-04 04:11:00,
2013-05-03 23:16:00,37.9,36.3,29.98,WNW,285,0.0,0.0,94,0.00,,---,2.12,VWS V14.01,2013-05-04 04:16:00,
2013-05-03 23:17:00,37.9,36.3,29.98,WNW,285,0.0,0.0,94,0.00,,---,2.12,VWS V14.01,2013-05-04 04:17:00,
2013-05-03 23:21:00,37.7,36.1,29.98,WNW,285,0.0,0.0,94,0.00,,---,2.12,VWS V14.01,2013-05-04 04:21:00,
2013-05-03 23:22:00,37.7,36.1,29.98,WNW,285,0.0,0.0,94,0.00,,---,2.12,VWS V14.01,2013-05-04 04:22:00,
2013-05-03 23:26:00,37.5,35.9,29.98,WNW,285,0.0,0.0,94,0.00,,---,2.12,VWS V14.01,2013-05-04 04:26:00,
2013-05-03 23:27:00,37.5,35.9,29.98,WNW,285,0.0,0.0,94,0.00,,---,2.12,VWS V14.01,2013-05-04 04:27:00,
2013-05-03 23:31:00,37.4,36.1,29.98,WNW,285,0.0,0.0,95,0.00,,---,2.12,VWS V14.01,2013-05-04 04:31:00,
2013-05-03 23:32:00,37.4,36.1,29.98,WNW,285,0.0,0.0,95,0.00,,---,2.12,VWS V14.01,2013-05-04 04:32:00,
2013-05-03 23:36:00,37.4,36.1,29.98,WNW,285,0.0,0.0,95,0.00,,---,2.12,VWS V14.01,2013-05-04 04:36:00,
2013-05-03 23:37:00,37.4,36.1,29.98,WNW,285,0.0,0.0,95,0.00,,---,2.12,VWS V14.01,2013-05-04 04:37:00,
2013-05-03 23:41:00,37.4,36.1,29.98,WNW,285,0.0,0.0,95,0.00,,---,2.12,VWS V14.01,2013-05-04 04:41:00,
2013-05-03 23:42:00,37.3,36.0,29.98,WNW,285,0.0,0.0,95,0.00,,---,2.12,VWS V14.01,2013-05-04 04:42:00,
2013-05-03 23:46:00,37.3,36.0,29.98,WNW,285,0.0,0.0,95,0.00,,---,2.12,VWS V14.01,2013-05-04 04:46:00,
2013-05-03 23:47:00,37.2,35.9,29.98,WNW,285,0.0,0.0,95,0.00,,---,2.12,VWS V14.01,2013-05-04 04:47:00,
2013-05-03 23:51:00,37.1,36.1,29.97,WNW,285,0.0,0.0,96,0.00,,---,2.12,VWS V14.01,2013-05-04 04:51:00,
2013-05-03 23:52:00,37.1,36.1,29.97,WNW,285,0.0,0.0,96,0.00,,---,2.12,VWS V14.01,2013-05-04 04:52:00,
2013-05-03 23:53:00,37.1,36.1,29.97,WNW,286,0.0,0.0,96,0.00,,---,2.12,VWS V14.01,2013-05-04 04:53:00,
2013-05-03 23:56:00,37.0,36.0,29.97,WNW,285,0.0,0.0,96,0.00,,---,2.12,VWS V14.01,2013-05-04 04:56:00,
2013-05-03 23:57:00,37.0,36.0,29.97,WNW,285,0.0,0.0,96,0.00,,---,2.12,VWS V14.01,2013-05-04 04:57:00,
2013-05-03 23:58:00,37.0,36.0,29.97,WNW,286,0.0,0.0,96,0.00,,---,2.12,VWS V14.01,2013-05-04 04:58:00,